<?xml version="1.0" encoding="UTF-8" standalone="no" ?>
<gpx xmlns="http://www.topografix.com/GPX/1/1" xmlns:xsi="http://www.w3.org/2001/XMLSchema-instance" xsi:schemaLocation="http://www.topografix.com/GPX/1/1 http://www.topografix.com/GPX/1/1/gpx.xsd" version="1.1" creator="VisuGPX - https://www.visugpx.com">
  <metadata>
    <name>La Mont pas un peu changée</name>
    <desc><![CDATA[Pour le retour de la moyenne montpas, je voulais passer devant le pré des 2 poulains (dont je m\'occupe) pour vérifier, en cas de passage, si tout se passait bien :)
Ténébra en pleine forme est parti dans un bon trot et l\'a bien tenu !]]></desc>
  </metadata>
  <trk>
    <name><![CDATA[Un bon trotting !!]]></name>
    <trkseg>
      <trkpt lat="48.70738" lon="1.75404">
        <ele>171.80000305176</ele>
        <time>2013-01-02T11:51:33.000Z</time>
      </trkpt>
      <trkpt lat="48.70744" lon="1.75385">
        <ele>172.19999694824</ele>
        <time>2013-01-02T11:51:44.000Z</time>
      </trkpt>
      <trkpt lat="48.70752" lon="1.75364">
        <ele>172.60000610352</ele>
        <time>2013-01-02T11:51:56.000Z</time>
      </trkpt>
      <trkpt lat="48.7076" lon="1.75344">
        <ele>173</ele>
        <time>2013-01-02T11:52:08.000Z</time>
      </trkpt>
      <trkpt lat="48.70767" lon="1.75326">
        <ele>173.19999694824</ele>
        <time>2013-01-02T11:52:18.000Z</time>
      </trkpt>
      <trkpt lat="48.70772" lon="1.75314">
        <ele>173.19999694824</ele>
        <time>2013-01-02T11:52:25.000Z</time>
      </trkpt>
      <trkpt lat="48.70778" lon="1.75297">
        <ele>173.19999694824</ele>
        <time>2013-01-02T11:52:35.000Z</time>
      </trkpt>
      <trkpt lat="48.70785" lon="1.75278">
        <ele>173.39999389648</ele>
        <time>2013-01-02T11:52:45.000Z</time>
      </trkpt>
      <trkpt lat="48.70791" lon="1.75262">
        <ele>173.39999389648</ele>
        <time>2013-01-02T11:52:54.000Z</time>
      </trkpt>
      <trkpt lat="48.70799" lon="1.75243">
        <ele>173.39999389648</ele>
        <time>2013-01-02T11:53:05.000Z</time>
      </trkpt>
      <trkpt lat="48.70808" lon="1.7522">
        <ele>173.60000610352</ele>
        <time>2013-01-02T11:53:18.000Z</time>
      </trkpt>
      <trkpt lat="48.70815" lon="1.75206">
        <ele>173.60000610352</ele>
        <time>2013-01-02T11:53:27.000Z</time>
      </trkpt>
      <trkpt lat="48.70824" lon="1.75186">
        <ele>173.80000305176</ele>
        <time>2013-01-02T11:53:39.000Z</time>
      </trkpt>
      <trkpt lat="48.70831" lon="1.75169">
        <ele>173.80000305176</ele>
        <time>2013-01-02T11:53:49.000Z</time>
      </trkpt>
      <trkpt lat="48.70834" lon="1.75162">
        <ele>174</ele>
        <time>2013-01-02T11:53:53.000Z</time>
      </trkpt>
      <trkpt lat="48.70839" lon="1.75152">
        <ele>174</ele>
        <time>2013-01-02T11:54:00.000Z</time>
      </trkpt>
      <trkpt lat="48.70844" lon="1.75141">
        <ele>174</ele>
        <time>2013-01-02T11:54:07.000Z</time>
      </trkpt>
      <trkpt lat="48.70849" lon="1.75132">
        <ele>174</ele>
        <time>2013-01-02T11:54:13.000Z</time>
      </trkpt>
      <trkpt lat="48.70855" lon="1.75122">
        <ele>174</ele>
        <time>2013-01-02T11:54:20.000Z</time>
      </trkpt>
      <trkpt lat="48.70861" lon="1.75109">
        <ele>174</ele>
        <time>2013-01-02T11:54:28.000Z</time>
      </trkpt>
      <trkpt lat="48.70869" lon="1.75096">
        <ele>174</ele>
        <time>2013-01-02T11:54:36.000Z</time>
      </trkpt>
      <trkpt lat="48.7087" lon="1.75093">
        <ele>174</ele>
        <time>2013-01-02T11:54:38.000Z</time>
      </trkpt>
      <trkpt lat="48.70876" lon="1.75083">
        <ele>174</ele>
        <time>2013-01-02T11:54:44.000Z</time>
      </trkpt>
      <trkpt lat="48.70881" lon="1.75071">
        <ele>174</ele>
        <time>2013-01-02T11:54:51.000Z</time>
      </trkpt>
      <trkpt lat="48.70881" lon="1.7507">
        <ele>174</ele>
        <time>2013-01-02T11:54:52.000Z</time>
      </trkpt>
      <trkpt lat="48.70883" lon="1.75063">
        <ele>174.19999694824</ele>
        <time>2013-01-02T11:54:56.000Z</time>
      </trkpt>
      <trkpt lat="48.70885" lon="1.7506">
        <ele>174.19999694824</ele>
        <time>2013-01-02T11:55:00.000Z</time>
      </trkpt>
      <trkpt lat="48.70886" lon="1.75054">
        <ele>174.19999694824</ele>
        <time>2013-01-02T11:55:03.000Z</time>
      </trkpt>
      <trkpt lat="48.70892" lon="1.75042">
        <ele>174.39999389648</ele>
        <time>2013-01-02T11:55:11.000Z</time>
      </trkpt>
      <trkpt lat="48.70895" lon="1.75035">
        <ele>174.39999389648</ele>
        <time>2013-01-02T11:55:16.000Z</time>
      </trkpt>
      <trkpt lat="48.70896" lon="1.75033">
        <ele>174.60000610352</ele>
        <time>2013-01-02T11:55:17.000Z</time>
      </trkpt>
      <trkpt lat="48.70902" lon="1.75022">
        <ele>174.60000610352</ele>
        <time>2013-01-02T11:55:24.000Z</time>
      </trkpt>
      <trkpt lat="48.70908" lon="1.7501">
        <ele>174.80000305176</ele>
        <time>2013-01-02T11:55:31.000Z</time>
      </trkpt>
      <trkpt lat="48.70915" lon="1.74994">
        <ele>174.80000305176</ele>
        <time>2013-01-02T11:55:40.000Z</time>
      </trkpt>
      <trkpt lat="48.7092" lon="1.74983">
        <ele>175</ele>
        <time>2013-01-02T11:55:47.000Z</time>
      </trkpt>
      <trkpt lat="48.70923" lon="1.74977">
        <ele>175.19999694824</ele>
        <time>2013-01-02T11:55:51.000Z</time>
      </trkpt>
      <trkpt lat="48.70924" lon="1.74977">
        <ele>175.19999694824</ele>
        <time>2013-01-02T11:55:54.000Z</time>
      </trkpt>
      <trkpt lat="48.70933" lon="1.74962">
        <ele>175.60000610352</ele>
        <time>2013-01-02T11:56:31.000Z</time>
      </trkpt>
      <trkpt lat="48.7094" lon="1.74951">
        <ele>175.80000305176</ele>
        <time>2013-01-02T11:56:37.000Z</time>
      </trkpt>
      <trkpt lat="48.70943" lon="1.74945">
        <ele>176</ele>
        <time>2013-01-02T11:56:41.000Z</time>
      </trkpt>
      <trkpt lat="48.70947" lon="1.74939">
        <ele>176.19999694824</ele>
        <time>2013-01-02T11:56:45.000Z</time>
      </trkpt>
      <trkpt lat="48.70953" lon="1.74929">
        <ele>176.60000610352</ele>
        <time>2013-01-02T11:56:52.000Z</time>
      </trkpt>
      <trkpt lat="48.70956" lon="1.74924">
        <ele>176.80000305176</ele>
        <time>2013-01-02T11:56:55.000Z</time>
      </trkpt>
      <trkpt lat="48.70965" lon="1.74913">
        <ele>177.19999694824</ele>
        <time>2013-01-02T11:57:03.000Z</time>
      </trkpt>
      <trkpt lat="48.7097" lon="1.74907">
        <ele>177.60000610352</ele>
        <time>2013-01-02T11:57:08.000Z</time>
      </trkpt>
      <trkpt lat="48.70975" lon="1.74903">
        <ele>177.80000305176</ele>
        <time>2013-01-02T11:57:13.000Z</time>
      </trkpt>
      <trkpt lat="48.7098" lon="1.74896">
        <ele>178.19999694824</ele>
        <time>2013-01-02T11:57:18.000Z</time>
      </trkpt>
      <trkpt lat="48.70988" lon="1.74887">
        <ele>178.39999389648</ele>
        <time>2013-01-02T11:57:25.000Z</time>
      </trkpt>
      <trkpt lat="48.7099" lon="1.74884">
        <ele>178.60000610352</ele>
        <time>2013-01-02T11:57:27.000Z</time>
      </trkpt>
      <trkpt lat="48.70995" lon="1.74877">
        <ele>178.80000305176</ele>
        <time>2013-01-02T11:57:32.000Z</time>
      </trkpt>
      <trkpt lat="48.71" lon="1.7487">
        <ele>178.80000305176</ele>
        <time>2013-01-02T11:57:37.000Z</time>
      </trkpt>
      <trkpt lat="48.71008" lon="1.74862">
        <ele>178.39999389648</ele>
        <time>2013-01-02T11:57:43.000Z</time>
      </trkpt>
      <trkpt lat="48.71012" lon="1.74847">
        <ele>178.19999694824</ele>
        <time>2013-01-02T11:57:51.000Z</time>
      </trkpt>
      <trkpt lat="48.71011" lon="1.74838">
        <ele>178.19999694824</ele>
        <time>2013-01-02T11:57:55.000Z</time>
      </trkpt>
      <trkpt lat="48.71006" lon="1.74826">
        <ele>178.39999389648</ele>
        <time>2013-01-02T11:58:01.000Z</time>
      </trkpt>
      <trkpt lat="48.71003" lon="1.74818">
        <ele>178.60000610352</ele>
        <time>2013-01-02T11:58:05.000Z</time>
      </trkpt>
      <trkpt lat="48.71002" lon="1.74811">
        <ele>178.60000610352</ele>
        <time>2013-01-02T11:58:09.000Z</time>
      </trkpt>
      <trkpt lat="48.70987" lon="1.74794">
        <ele>178.39999389648</ele>
        <time>2013-01-02T11:58:19.000Z</time>
      </trkpt>
      <trkpt lat="48.70976" lon="1.74778">
        <ele>178.19999694824</ele>
        <time>2013-01-02T11:58:28.000Z</time>
      </trkpt>
      <trkpt lat="48.7097" lon="1.74769">
        <ele>178</ele>
        <time>2013-01-02T11:58:34.000Z</time>
      </trkpt>
      <trkpt lat="48.70964" lon="1.74763">
        <ele>178</ele>
        <time>2013-01-02T11:58:40.000Z</time>
      </trkpt>
      <trkpt lat="48.70958" lon="1.74757">
        <ele>178</ele>
        <time>2013-01-02T11:58:46.000Z</time>
      </trkpt>
      <trkpt lat="48.7095" lon="1.74747">
        <ele>177.80000305176</ele>
        <time>2013-01-02T11:58:54.000Z</time>
      </trkpt>
      <trkpt lat="48.70942" lon="1.7474">
        <ele>177.80000305176</ele>
        <time>2013-01-02T11:59:00.000Z</time>
      </trkpt>
      <trkpt lat="48.70937" lon="1.74734">
        <ele>177.60000610352</ele>
        <time>2013-01-02T11:59:06.000Z</time>
      </trkpt>
      <trkpt lat="48.7093" lon="1.74727">
        <ele>177.39999389648</ele>
        <time>2013-01-02T11:59:12.000Z</time>
      </trkpt>
      <trkpt lat="48.70925" lon="1.7472">
        <ele>177.19999694824</ele>
        <time>2013-01-02T11:59:17.000Z</time>
      </trkpt>
      <trkpt lat="48.70916" lon="1.74709">
        <ele>177</ele>
        <time>2013-01-02T11:59:25.000Z</time>
      </trkpt>
      <trkpt lat="48.70911" lon="1.74702">
        <ele>176.80000305176</ele>
        <time>2013-01-02T11:59:31.000Z</time>
      </trkpt>
      <trkpt lat="48.70904" lon="1.74692">
        <ele>176.60000610352</ele>
        <time>2013-01-02T11:59:38.000Z</time>
      </trkpt>
      <trkpt lat="48.70899" lon="1.74687">
        <ele>176.39999389648</ele>
        <time>2013-01-02T11:59:42.000Z</time>
      </trkpt>
      <trkpt lat="48.70891" lon="1.74674">
        <ele>176.19999694824</ele>
        <time>2013-01-02T11:59:51.000Z</time>
      </trkpt>
      <trkpt lat="48.70886" lon="1.74667">
        <ele>176</ele>
        <time>2013-01-02T11:59:56.000Z</time>
      </trkpt>
      <trkpt lat="48.70879" lon="1.7466">
        <ele>175.80000305176</ele>
        <time>2013-01-02T12:00:02.000Z</time>
      </trkpt>
      <trkpt lat="48.70872" lon="1.74651">
        <ele>175.80000305176</ele>
        <time>2013-01-02T12:00:09.000Z</time>
      </trkpt>
      <trkpt lat="48.70866" lon="1.74643">
        <ele>175.80000305176</ele>
        <time>2013-01-02T12:00:15.000Z</time>
      </trkpt>
      <trkpt lat="48.70862" lon="1.74636">
        <ele>175.80000305176</ele>
        <time>2013-01-02T12:00:20.000Z</time>
      </trkpt>
      <trkpt lat="48.70858" lon="1.74629">
        <ele>175.80000305176</ele>
        <time>2013-01-02T12:00:24.000Z</time>
      </trkpt>
      <trkpt lat="48.70852" lon="1.74622">
        <ele>175.80000305176</ele>
        <time>2013-01-02T12:00:29.000Z</time>
      </trkpt>
      <trkpt lat="48.70849" lon="1.74615">
        <ele>175.80000305176</ele>
        <time>2013-01-02T12:00:33.000Z</time>
      </trkpt>
      <trkpt lat="48.70844" lon="1.74607">
        <ele>175.80000305176</ele>
        <time>2013-01-02T12:00:39.000Z</time>
      </trkpt>
      <trkpt lat="48.7084" lon="1.746">
        <ele>175.80000305176</ele>
        <time>2013-01-02T12:00:45.000Z</time>
      </trkpt>
      <trkpt lat="48.7084" lon="1.746">
        <ele>175.80000305176</ele>
        <time>2013-01-02T12:00:47.000Z</time>
      </trkpt>
      <trkpt lat="48.70839" lon="1.746">
        <ele>175.80000305176</ele>
        <time>2013-01-02T12:00:51.000Z</time>
      </trkpt>
      <trkpt lat="48.70837" lon="1.74598">
        <ele>175.80000305176</ele>
        <time>2013-01-02T12:00:52.000Z</time>
      </trkpt>
      <trkpt lat="48.70831" lon="1.74592">
        <ele>176</ele>
        <time>2013-01-02T12:00:58.000Z</time>
      </trkpt>
      <trkpt lat="48.7083" lon="1.74591">
        <ele>176</ele>
        <time>2013-01-02T12:00:59.000Z</time>
      </trkpt>
      <trkpt lat="48.70827" lon="1.74588">
        <ele>176</ele>
        <time>2013-01-02T12:01:02.000Z</time>
      </trkpt>
      <trkpt lat="48.70823" lon="1.7458">
        <ele>176</ele>
        <time>2013-01-02T12:01:08.000Z</time>
      </trkpt>
      <trkpt lat="48.70819" lon="1.74577">
        <ele>176</ele>
        <time>2013-01-02T12:01:11.000Z</time>
      </trkpt>
      <trkpt lat="48.70815" lon="1.74571">
        <ele>176.19999694824</ele>
        <time>2013-01-02T12:01:16.000Z</time>
      </trkpt>
      <trkpt lat="48.70813" lon="1.74566">
        <ele>176.19999694824</ele>
        <time>2013-01-02T12:01:21.000Z</time>
      </trkpt>
      <trkpt lat="48.70814" lon="1.74567">
        <ele>176.19999694824</ele>
        <time>2013-01-02T12:01:23.000Z</time>
      </trkpt>
      <trkpt lat="48.70811" lon="1.74566">
        <ele>176.19999694824</ele>
        <time>2013-01-02T12:01:35.000Z</time>
      </trkpt>
      <trkpt lat="48.7081" lon="1.74565">
        <ele>176.19999694824</ele>
        <time>2013-01-02T12:01:36.000Z</time>
      </trkpt>
      <trkpt lat="48.70809" lon="1.74563">
        <ele>176.19999694824</ele>
        <time>2013-01-02T12:01:37.000Z</time>
      </trkpt>
      <trkpt lat="48.70802" lon="1.74553">
        <ele>176.19999694824</ele>
        <time>2013-01-02T12:01:45.000Z</time>
      </trkpt>
      <trkpt lat="48.70801" lon="1.74552">
        <ele>176.19999694824</ele>
        <time>2013-01-02T12:01:46.000Z</time>
      </trkpt>
      <trkpt lat="48.70798" lon="1.74548">
        <ele>176.39999389648</ele>
        <time>2013-01-02T12:01:49.000Z</time>
      </trkpt>
      <trkpt lat="48.70793" lon="1.74543">
        <ele>176.39999389648</ele>
        <time>2013-01-02T12:01:55.000Z</time>
      </trkpt>
      <trkpt lat="48.70786" lon="1.74537">
        <ele>176.39999389648</ele>
        <time>2013-01-02T12:02:01.000Z</time>
      </trkpt>
      <trkpt lat="48.70781" lon="1.7453">
        <ele>176.60000610352</ele>
        <time>2013-01-02T12:02:06.000Z</time>
      </trkpt>
      <trkpt lat="48.70771" lon="1.7452">
        <ele>176.60000610352</ele>
        <time>2013-01-02T12:02:15.000Z</time>
      </trkpt>
      <trkpt lat="48.70765" lon="1.74511">
        <ele>176.80000305176</ele>
        <time>2013-01-02T12:02:21.000Z</time>
      </trkpt>
      <trkpt lat="48.70751" lon="1.74495">
        <ele>177</ele>
        <time>2013-01-02T12:02:33.000Z</time>
      </trkpt>
      <trkpt lat="48.70739" lon="1.74481">
        <ele>177.60000610352</ele>
        <time>2013-01-02T12:02:44.000Z</time>
      </trkpt>
      <trkpt lat="48.70732" lon="1.74472">
        <ele>177.80000305176</ele>
        <time>2013-01-02T12:02:50.000Z</time>
      </trkpt>
      <trkpt lat="48.70732" lon="1.74467">
        <ele>178</ele>
        <time>2013-01-02T12:02:55.000Z</time>
      </trkpt>
      <trkpt lat="48.70733" lon="1.74455">
        <ele>178</ele>
        <time>2013-01-02T12:03:43.000Z</time>
      </trkpt>
      <trkpt lat="48.70735" lon="1.74452">
        <ele>178</ele>
        <time>2013-01-02T12:03:44.000Z</time>
      </trkpt>
      <trkpt lat="48.70741" lon="1.74446">
        <ele>177.80000305176</ele>
        <time>2013-01-02T12:03:50.000Z</time>
      </trkpt>
      <trkpt lat="48.70745" lon="1.74444">
        <ele>177.80000305176</ele>
        <time>2013-01-02T12:03:53.000Z</time>
      </trkpt>
      <trkpt lat="48.70757" lon="1.74437">
        <ele>177.60000610352</ele>
        <time>2013-01-02T12:04:03.000Z</time>
      </trkpt>
      <trkpt lat="48.70771" lon="1.74431">
        <ele>177.19999694824</ele>
        <time>2013-01-02T12:04:13.000Z</time>
      </trkpt>
      <trkpt lat="48.70776" lon="1.74428">
        <ele>177.19999694824</ele>
        <time>2013-01-02T12:04:17.000Z</time>
      </trkpt>
      <trkpt lat="48.70787" lon="1.74424">
        <ele>177</ele>
        <time>2013-01-02T12:04:25.000Z</time>
      </trkpt>
      <trkpt lat="48.70793" lon="1.74418">
        <ele>176.80000305176</ele>
        <time>2013-01-02T12:04:31.000Z</time>
      </trkpt>
      <trkpt lat="48.708" lon="1.74413">
        <ele>176.80000305176</ele>
        <time>2013-01-02T12:04:37.000Z</time>
      </trkpt>
      <trkpt lat="48.70803" lon="1.7441">
        <ele>176.80000305176</ele>
        <time>2013-01-02T12:04:40.000Z</time>
      </trkpt>
      <trkpt lat="48.70808" lon="1.74406">
        <ele>176.60000610352</ele>
        <time>2013-01-02T12:04:45.000Z</time>
      </trkpt>
      <trkpt lat="48.70816" lon="1.74398">
        <ele>176.60000610352</ele>
        <time>2013-01-02T12:04:52.000Z</time>
      </trkpt>
      <trkpt lat="48.70824" lon="1.74392">
        <ele>176.39999389648</ele>
        <time>2013-01-02T12:04:58.000Z</time>
      </trkpt>
      <trkpt lat="48.70831" lon="1.74384">
        <ele>176.39999389648</ele>
        <time>2013-01-02T12:05:04.000Z</time>
      </trkpt>
      <trkpt lat="48.7084" lon="1.74372">
        <ele>176.39999389648</ele>
        <time>2013-01-02T12:05:13.000Z</time>
      </trkpt>
      <trkpt lat="48.70848" lon="1.74359">
        <ele>176.39999389648</ele>
        <time>2013-01-02T12:05:21.000Z</time>
      </trkpt>
      <trkpt lat="48.70855" lon="1.74348">
        <ele>176.39999389648</ele>
        <time>2013-01-02T12:05:29.000Z</time>
      </trkpt>
      <trkpt lat="48.7086" lon="1.74341">
        <ele>176.39999389648</ele>
        <time>2013-01-02T12:05:35.000Z</time>
      </trkpt>
      <trkpt lat="48.70861" lon="1.74339">
        <ele>176.60000610352</ele>
        <time>2013-01-02T12:05:37.000Z</time>
      </trkpt>
      <trkpt lat="48.70867" lon="1.7433">
        <ele>176.60000610352</ele>
        <time>2013-01-02T12:05:43.000Z</time>
      </trkpt>
      <trkpt lat="48.70873" lon="1.74323">
        <ele>177</ele>
        <time>2013-01-02T12:05:49.000Z</time>
      </trkpt>
      <trkpt lat="48.70878" lon="1.74314">
        <ele>177.39999389648</ele>
        <time>2013-01-02T12:05:55.000Z</time>
      </trkpt>
      <trkpt lat="48.70884" lon="1.74303">
        <ele>177.80000305176</ele>
        <time>2013-01-02T12:06:02.000Z</time>
      </trkpt>
      <trkpt lat="48.70887" lon="1.74295">
        <ele>178.19999694824</ele>
        <time>2013-01-02T12:06:06.000Z</time>
      </trkpt>
      <trkpt lat="48.70889" lon="1.74292">
        <ele>178.39999389648</ele>
        <time>2013-01-02T12:06:08.000Z</time>
      </trkpt>
      <trkpt lat="48.70893" lon="1.74277">
        <ele>179.19999694824</ele>
        <time>2013-01-02T12:06:15.000Z</time>
      </trkpt>
      <trkpt lat="48.70893" lon="1.74276">
        <ele>179.19999694824</ele>
        <time>2013-01-02T12:06:17.000Z</time>
      </trkpt>
      <trkpt lat="48.70897" lon="1.74273">
        <ele>179.39999389648</ele>
        <time>2013-01-02T12:06:59.000Z</time>
      </trkpt>
      <trkpt lat="48.70898" lon="1.74272">
        <ele>179.39999389648</ele>
        <time>2013-01-02T12:07:00.000Z</time>
      </trkpt>
      <trkpt lat="48.70899" lon="1.7427">
        <ele>179.60000610352</ele>
        <time>2013-01-02T12:07:01.000Z</time>
      </trkpt>
      <trkpt lat="48.70903" lon="1.74262">
        <ele>180</ele>
        <time>2013-01-02T12:07:06.000Z</time>
      </trkpt>
      <trkpt lat="48.70907" lon="1.74252">
        <ele>180.60000610352</ele>
        <time>2013-01-02T12:07:13.000Z</time>
      </trkpt>
      <trkpt lat="48.70908" lon="1.7424">
        <ele>181</ele>
        <time>2013-01-02T12:07:20.000Z</time>
      </trkpt>
      <trkpt lat="48.70908" lon="1.74238">
        <ele>181</ele>
        <time>2013-01-02T12:07:21.000Z</time>
      </trkpt>
      <trkpt lat="48.70908" lon="1.74233">
        <ele>181.19999694824</ele>
        <time>2013-01-02T12:07:24.000Z</time>
      </trkpt>
      <trkpt lat="48.70909" lon="1.74234">
        <ele>181.19999694824</ele>
        <time>2013-01-02T12:07:29.000Z</time>
      </trkpt>
      <trkpt lat="48.70911" lon="1.74203">
        <ele>182</ele>
        <time>2013-01-02T12:08:52.000Z</time>
      </trkpt>
      <trkpt lat="48.70914" lon="1.74195">
        <ele>182.19999694824</ele>
        <time>2013-01-02T12:08:58.000Z</time>
      </trkpt>
      <trkpt lat="48.70916" lon="1.74188">
        <ele>182.39999389648</ele>
        <time>2013-01-02T12:09:04.000Z</time>
      </trkpt>
      <trkpt lat="48.7092" lon="1.7418">
        <ele>182.39999389648</ele>
        <time>2013-01-02T12:09:11.000Z</time>
      </trkpt>
      <trkpt lat="48.70922" lon="1.74175">
        <ele>182.60000610352</ele>
        <time>2013-01-02T12:09:14.000Z</time>
      </trkpt>
      <trkpt lat="48.70924" lon="1.74164">
        <ele>182.60000610352</ele>
        <time>2013-01-02T12:09:21.000Z</time>
      </trkpt>
      <trkpt lat="48.70926" lon="1.7416">
        <ele>182.60000610352</ele>
        <time>2013-01-02T12:09:23.000Z</time>
      </trkpt>
      <trkpt lat="48.70927" lon="1.74153">
        <ele>182.60000610352</ele>
        <time>2013-01-02T12:09:29.000Z</time>
      </trkpt>
      <trkpt lat="48.70927" lon="1.74153">
        <ele>182.60000610352</ele>
        <time>2013-01-02T12:09:30.000Z</time>
      </trkpt>
      <trkpt lat="48.70928" lon="1.7414">
        <ele>182.60000610352</ele>
        <time>2013-01-02T12:09:55.000Z</time>
      </trkpt>
      <trkpt lat="48.70928" lon="1.74137">
        <ele>182.60000610352</ele>
        <time>2013-01-02T12:09:56.000Z</time>
      </trkpt>
      <trkpt lat="48.70931" lon="1.74129">
        <ele>182.60000610352</ele>
        <time>2013-01-02T12:10:00.000Z</time>
      </trkpt>
      <trkpt lat="48.70931" lon="1.74127">
        <ele>182.60000610352</ele>
        <time>2013-01-02T12:10:01.000Z</time>
      </trkpt>
      <trkpt lat="48.70934" lon="1.74114">
        <ele>182.60000610352</ele>
        <time>2013-01-02T12:10:09.000Z</time>
      </trkpt>
      <trkpt lat="48.70935" lon="1.74107">
        <ele>182.60000610352</ele>
        <time>2013-01-02T12:10:12.000Z</time>
      </trkpt>
      <trkpt lat="48.70938" lon="1.74097">
        <ele>182.60000610352</ele>
        <time>2013-01-02T12:10:18.000Z</time>
      </trkpt>
      <trkpt lat="48.70939" lon="1.74086">
        <ele>182.60000610352</ele>
        <time>2013-01-02T12:10:23.000Z</time>
      </trkpt>
      <trkpt lat="48.70942" lon="1.74076">
        <ele>182.60000610352</ele>
        <time>2013-01-02T12:10:29.000Z</time>
      </trkpt>
      <trkpt lat="48.70943" lon="1.74072">
        <ele>182.60000610352</ele>
        <time>2013-01-02T12:10:31.000Z</time>
      </trkpt>
      <trkpt lat="48.70946" lon="1.74061">
        <ele>182.60000610352</ele>
        <time>2013-01-02T12:10:38.000Z</time>
      </trkpt>
      <trkpt lat="48.70946" lon="1.74059">
        <ele>182.60000610352</ele>
        <time>2013-01-02T12:10:39.000Z</time>
      </trkpt>
      <trkpt lat="48.7095" lon="1.74053">
        <ele>182.39999389648</ele>
        <time>2013-01-02T12:10:46.000Z</time>
      </trkpt>
      <trkpt lat="48.70955" lon="1.74051">
        <ele>182.39999389648</ele>
        <time>2013-01-02T12:10:51.000Z</time>
      </trkpt>
      <trkpt lat="48.70957" lon="1.74044">
        <ele>182.39999389648</ele>
        <time>2013-01-02T12:10:55.000Z</time>
      </trkpt>
      <trkpt lat="48.70958" lon="1.74038">
        <ele>182.39999389648</ele>
        <time>2013-01-02T12:10:58.000Z</time>
      </trkpt>
      <trkpt lat="48.70964" lon="1.74024">
        <ele>182.39999389648</ele>
        <time>2013-01-02T12:11:06.000Z</time>
      </trkpt>
      <trkpt lat="48.70968" lon="1.74014">
        <ele>182.19999694824</ele>
        <time>2013-01-02T12:11:13.000Z</time>
      </trkpt>
      <trkpt lat="48.7097" lon="1.74006">
        <ele>182.19999694824</ele>
        <time>2013-01-02T12:11:18.000Z</time>
      </trkpt>
      <trkpt lat="48.70973" lon="1.73998">
        <ele>182.19999694824</ele>
        <time>2013-01-02T12:11:23.000Z</time>
      </trkpt>
      <trkpt lat="48.70974" lon="1.73989">
        <ele>182.39999389648</ele>
        <time>2013-01-02T12:11:29.000Z</time>
      </trkpt>
      <trkpt lat="48.70972" lon="1.73981">
        <ele>182.60000610352</ele>
        <time>2013-01-02T12:11:37.000Z</time>
      </trkpt>
      <trkpt lat="48.70972" lon="1.73977">
        <ele>182.80000305176</ele>
        <time>2013-01-02T12:11:39.000Z</time>
      </trkpt>
      <trkpt lat="48.70974" lon="1.7397">
        <ele>183</ele>
        <time>2013-01-02T12:11:46.000Z</time>
      </trkpt>
      <trkpt lat="48.70974" lon="1.73969">
        <ele>183</ele>
        <time>2013-01-02T12:11:47.000Z</time>
      </trkpt>
      <trkpt lat="48.70976" lon="1.73952">
        <ele>183.39999389648</ele>
        <time>2013-01-02T12:12:06.000Z</time>
      </trkpt>
      <trkpt lat="48.7098" lon="1.7394">
        <ele>183.80000305176</ele>
        <time>2013-01-02T12:12:12.000Z</time>
      </trkpt>
      <trkpt lat="48.70984" lon="1.73924">
        <ele>184.19999694824</ele>
        <time>2013-01-02T12:12:20.000Z</time>
      </trkpt>
      <trkpt lat="48.70986" lon="1.73917">
        <ele>184.60000610352</ele>
        <time>2013-01-02T12:12:24.000Z</time>
      </trkpt>
      <trkpt lat="48.70988" lon="1.73905">
        <ele>184.39999389648</ele>
        <time>2013-01-02T12:12:30.000Z</time>
      </trkpt>
      <trkpt lat="48.70991" lon="1.73891">
        <ele>184</ele>
        <time>2013-01-02T12:12:39.000Z</time>
      </trkpt>
      <trkpt lat="48.70992" lon="1.7388">
        <ele>183.80000305176</ele>
        <time>2013-01-02T12:12:45.000Z</time>
      </trkpt>
      <trkpt lat="48.70995" lon="1.73874">
        <ele>183.80000305176</ele>
        <time>2013-01-02T12:12:49.000Z</time>
      </trkpt>
      <trkpt lat="48.70997" lon="1.73864">
        <ele>183.60000610352</ele>
        <time>2013-01-02T12:12:55.000Z</time>
      </trkpt>
      <trkpt lat="48.70998" lon="1.7386">
        <ele>183.39999389648</ele>
        <time>2013-01-02T12:12:57.000Z</time>
      </trkpt>
      <trkpt lat="48.70999" lon="1.73858">
        <ele>183.39999389648</ele>
        <time>2013-01-02T12:12:59.000Z</time>
      </trkpt>
      <trkpt lat="48.71004" lon="1.73841">
        <ele>183</ele>
        <time>2013-01-02T12:13:08.000Z</time>
      </trkpt>
      <trkpt lat="48.71008" lon="1.73828">
        <ele>182.60000610352</ele>
        <time>2013-01-02T12:13:15.000Z</time>
      </trkpt>
      <trkpt lat="48.7101" lon="1.73817">
        <ele>182.39999389648</ele>
        <time>2013-01-02T12:13:20.000Z</time>
      </trkpt>
      <trkpt lat="48.71014" lon="1.73811">
        <ele>182.39999389648</ele>
        <time>2013-01-02T12:13:24.000Z</time>
      </trkpt>
      <trkpt lat="48.71021" lon="1.73804">
        <ele>182.19999694824</ele>
        <time>2013-01-02T12:13:31.000Z</time>
      </trkpt>
      <trkpt lat="48.71022" lon="1.73801">
        <ele>182.19999694824</ele>
        <time>2013-01-02T12:13:33.000Z</time>
      </trkpt>
      <trkpt lat="48.71026" lon="1.73797">
        <ele>182.19999694824</ele>
        <time>2013-01-02T12:13:37.000Z</time>
      </trkpt>
      <trkpt lat="48.71032" lon="1.7379">
        <ele>182</ele>
        <time>2013-01-02T12:13:43.000Z</time>
      </trkpt>
      <trkpt lat="48.7104" lon="1.7378">
        <ele>182</ele>
        <time>2013-01-02T12:13:51.000Z</time>
      </trkpt>
      <trkpt lat="48.71047" lon="1.73769">
        <ele>182.19999694824</ele>
        <time>2013-01-02T12:13:59.000Z</time>
      </trkpt>
      <trkpt lat="48.71048" lon="1.73768">
        <ele>182.19999694824</ele>
        <time>2013-01-02T12:14:00.000Z</time>
      </trkpt>
      <trkpt lat="48.71054" lon="1.73762">
        <ele>182.19999694824</ele>
        <time>2013-01-02T12:14:05.000Z</time>
      </trkpt>
      <trkpt lat="48.71061" lon="1.73753">
        <ele>182.39999389648</ele>
        <time>2013-01-02T12:14:13.000Z</time>
      </trkpt>
      <trkpt lat="48.71069" lon="1.73746">
        <ele>182.39999389648</ele>
        <time>2013-01-02T12:14:20.000Z</time>
      </trkpt>
      <trkpt lat="48.71071" lon="1.73745">
        <ele>182.39999389648</ele>
        <time>2013-01-02T12:14:21.000Z</time>
      </trkpt>
      <trkpt lat="48.71079" lon="1.73739">
        <ele>182.39999389648</ele>
        <time>2013-01-02T12:14:29.000Z</time>
      </trkpt>
      <trkpt lat="48.71082" lon="1.73736">
        <ele>182.19999694824</ele>
        <time>2013-01-02T12:14:32.000Z</time>
      </trkpt>
      <trkpt lat="48.71088" lon="1.73729">
        <ele>182</ele>
        <time>2013-01-02T12:14:38.000Z</time>
      </trkpt>
      <trkpt lat="48.71095" lon="1.73724">
        <ele>182</ele>
        <time>2013-01-02T12:14:43.000Z</time>
      </trkpt>
      <trkpt lat="48.71097" lon="1.73722">
        <ele>181.80000305176</ele>
        <time>2013-01-02T12:14:45.000Z</time>
      </trkpt>
      <trkpt lat="48.711" lon="1.73716">
        <ele>181.80000305176</ele>
        <time>2013-01-02T12:14:49.000Z</time>
      </trkpt>
      <trkpt lat="48.71104" lon="1.73711">
        <ele>181.60000610352</ele>
        <time>2013-01-02T12:14:53.000Z</time>
      </trkpt>
      <trkpt lat="48.7111" lon="1.73703">
        <ele>181.60000610352</ele>
        <time>2013-01-02T12:14:59.000Z</time>
      </trkpt>
      <trkpt lat="48.71117" lon="1.73695">
        <ele>181.39999389648</ele>
        <time>2013-01-02T12:15:06.000Z</time>
      </trkpt>
      <trkpt lat="48.7112" lon="1.73693">
        <ele>181.60000610352</ele>
        <time>2013-01-02T12:15:08.000Z</time>
      </trkpt>
      <trkpt lat="48.7113" lon="1.73685">
        <ele>181.60000610352</ele>
        <time>2013-01-02T12:15:16.000Z</time>
      </trkpt>
      <trkpt lat="48.71131" lon="1.73684">
        <ele>181.60000610352</ele>
        <time>2013-01-02T12:15:18.000Z</time>
      </trkpt>
      <trkpt lat="48.71136" lon="1.73677">
        <ele>181.60000610352</ele>
        <time>2013-01-02T12:15:23.000Z</time>
      </trkpt>
      <trkpt lat="48.71145" lon="1.7367">
        <ele>182</ele>
        <time>2013-01-02T12:15:30.000Z</time>
      </trkpt>
      <trkpt lat="48.71152" lon="1.73661">
        <ele>182</ele>
        <time>2013-01-02T12:15:37.000Z</time>
      </trkpt>
      <trkpt lat="48.7116" lon="1.73653">
        <ele>182.19999694824</ele>
        <time>2013-01-02T12:15:44.000Z</time>
      </trkpt>
      <trkpt lat="48.71168" lon="1.73646">
        <ele>182.19999694824</ele>
        <time>2013-01-02T12:15:51.000Z</time>
      </trkpt>
      <trkpt lat="48.71176" lon="1.73638">
        <ele>182</ele>
        <time>2013-01-02T12:15:58.000Z</time>
      </trkpt>
      <trkpt lat="48.71184" lon="1.7363">
        <ele>182</ele>
        <time>2013-01-02T12:16:05.000Z</time>
      </trkpt>
      <trkpt lat="48.71188" lon="1.73626">
        <ele>182</ele>
        <time>2013-01-02T12:16:08.000Z</time>
      </trkpt>
      <trkpt lat="48.71194" lon="1.73616">
        <ele>182</ele>
        <time>2013-01-02T12:16:15.000Z</time>
      </trkpt>
      <trkpt lat="48.71195" lon="1.73613">
        <ele>182</ele>
        <time>2013-01-02T12:16:17.000Z</time>
      </trkpt>
      <trkpt lat="48.71202" lon="1.73605">
        <ele>182.19999694824</ele>
        <time>2013-01-02T12:16:24.000Z</time>
      </trkpt>
      <trkpt lat="48.71212" lon="1.73609">
        <ele>182.80000305176</ele>
        <time>2013-01-02T12:16:31.000Z</time>
      </trkpt>
      <trkpt lat="48.71221" lon="1.73614">
        <ele>183</ele>
        <time>2013-01-02T12:16:38.000Z</time>
      </trkpt>
      <trkpt lat="48.71226" lon="1.73616">
        <ele>183.19999694824</ele>
        <time>2013-01-02T12:16:42.000Z</time>
      </trkpt>
      <trkpt lat="48.71237" lon="1.73614">
        <ele>183.60000610352</ele>
        <time>2013-01-02T12:16:50.000Z</time>
      </trkpt>
      <trkpt lat="48.71241" lon="1.73613">
        <ele>183.80000305176</ele>
        <time>2013-01-02T12:16:53.000Z</time>
      </trkpt>
      <trkpt lat="48.71253" lon="1.73614">
        <ele>183.60000610352</ele>
        <time>2013-01-02T12:17:02.000Z</time>
      </trkpt>
      <trkpt lat="48.71255" lon="1.73615">
        <ele>183.19999694824</ele>
        <time>2013-01-02T12:17:03.000Z</time>
      </trkpt>
      <trkpt lat="48.71261" lon="1.73614">
        <ele>182.19999694824</ele>
        <time>2013-01-02T12:17:09.000Z</time>
      </trkpt>
      <trkpt lat="48.71264" lon="1.73614">
        <ele>181.60000610352</ele>
        <time>2013-01-02T12:17:12.000Z</time>
      </trkpt>
      <trkpt lat="48.7127" lon="1.7361">
        <ele>180.80000305176</ele>
        <time>2013-01-02T12:17:18.000Z</time>
      </trkpt>
      <trkpt lat="48.71279" lon="1.73601">
        <ele>179.60000610352</ele>
        <time>2013-01-02T12:17:26.000Z</time>
      </trkpt>
      <trkpt lat="48.71287" lon="1.73593">
        <ele>178.39999389648</ele>
        <time>2013-01-02T12:17:32.000Z</time>
      </trkpt>
      <trkpt lat="48.71295" lon="1.73584">
        <ele>177.39999389648</ele>
        <time>2013-01-02T12:17:39.000Z</time>
      </trkpt>
      <trkpt lat="48.71296" lon="1.73583">
        <ele>177.19999694824</ele>
        <time>2013-01-02T12:17:40.000Z</time>
      </trkpt>
      <trkpt lat="48.71302" lon="1.7357">
        <ele>176.60000610352</ele>
        <time>2013-01-02T12:17:48.000Z</time>
      </trkpt>
      <trkpt lat="48.71306" lon="1.7356">
        <ele>176.39999389648</ele>
        <time>2013-01-02T12:17:54.000Z</time>
      </trkpt>
      <trkpt lat="48.71308" lon="1.73553">
        <ele>176.19999694824</ele>
        <time>2013-01-02T12:18:00.000Z</time>
      </trkpt>
      <trkpt lat="48.71311" lon="1.73546">
        <ele>176.19999694824</ele>
        <time>2013-01-02T12:18:04.000Z</time>
      </trkpt>
      <trkpt lat="48.71319" lon="1.7354">
        <ele>175.60000610352</ele>
        <time>2013-01-02T12:18:11.000Z</time>
      </trkpt>
      <trkpt lat="48.71326" lon="1.73532">
        <ele>175.39999389648</ele>
        <time>2013-01-02T12:18:19.000Z</time>
      </trkpt>
      <trkpt lat="48.7133" lon="1.73527">
        <ele>175.19999694824</ele>
        <time>2013-01-02T12:18:23.000Z</time>
      </trkpt>
      <trkpt lat="48.71336" lon="1.73524">
        <ele>174.80000305176</ele>
        <time>2013-01-02T12:18:28.000Z</time>
      </trkpt>
      <trkpt lat="48.71343" lon="1.73526">
        <ele>174</ele>
        <time>2013-01-02T12:18:32.000Z</time>
      </trkpt>
      <trkpt lat="48.71346" lon="1.7353">
        <ele>173.19999694824</ele>
        <time>2013-01-02T12:18:36.000Z</time>
      </trkpt>
      <trkpt lat="48.71351" lon="1.73537">
        <ele>172</ele>
        <time>2013-01-02T12:18:42.000Z</time>
      </trkpt>
      <trkpt lat="48.71355" lon="1.73545">
        <ele>171</ele>
        <time>2013-01-02T12:18:46.000Z</time>
      </trkpt>
      <trkpt lat="48.71365" lon="1.73552">
        <ele>169.39999389648</ele>
        <time>2013-01-02T12:18:53.000Z</time>
      </trkpt>
      <trkpt lat="48.71372" lon="1.73559">
        <ele>168.19999694824</ele>
        <time>2013-01-02T12:18:59.000Z</time>
      </trkpt>
      <trkpt lat="48.71375" lon="1.7356">
        <ele>167.80000305176</ele>
        <time>2013-01-02T12:19:01.000Z</time>
      </trkpt>
      <trkpt lat="48.71385" lon="1.73569">
        <ele>166.19999694824</ele>
        <time>2013-01-02T12:19:09.000Z</time>
      </trkpt>
      <trkpt lat="48.71391" lon="1.73573">
        <ele>165.19999694824</ele>
        <time>2013-01-02T12:19:15.000Z</time>
      </trkpt>
      <trkpt lat="48.71399" lon="1.7358">
        <ele>164</ele>
        <time>2013-01-02T12:19:21.000Z</time>
      </trkpt>
      <trkpt lat="48.71407" lon="1.73575">
        <ele>163.39999389648</ele>
        <time>2013-01-02T12:19:26.000Z</time>
      </trkpt>
      <trkpt lat="48.71409" lon="1.73574">
        <ele>163.19999694824</ele>
        <time>2013-01-02T12:19:27.000Z</time>
      </trkpt>
      <trkpt lat="48.71417" lon="1.73572">
        <ele>162.39999389648</ele>
        <time>2013-01-02T12:19:32.000Z</time>
      </trkpt>
      <trkpt lat="48.71422" lon="1.73572">
        <ele>162</ele>
        <time>2013-01-02T12:19:36.000Z</time>
      </trkpt>
      <trkpt lat="48.71431" lon="1.73571">
        <ele>161</ele>
        <time>2013-01-02T12:19:42.000Z</time>
      </trkpt>
      <trkpt lat="48.71439" lon="1.7357">
        <ele>160.39999389648</ele>
        <time>2013-01-02T12:19:47.000Z</time>
      </trkpt>
      <trkpt lat="48.7144" lon="1.7357">
        <ele>160.19999694824</ele>
        <time>2013-01-02T12:19:48.000Z</time>
      </trkpt>
      <trkpt lat="48.71445" lon="1.73569">
        <ele>159.80000305176</ele>
        <time>2013-01-02T12:19:52.000Z</time>
      </trkpt>
      <trkpt lat="48.71454" lon="1.73566">
        <ele>159</ele>
        <time>2013-01-02T12:19:58.000Z</time>
      </trkpt>
      <trkpt lat="48.71462" lon="1.73563">
        <ele>158.19999694824</ele>
        <time>2013-01-02T12:20:04.000Z</time>
      </trkpt>
      <trkpt lat="48.71472" lon="1.73559">
        <ele>157</ele>
        <time>2013-01-02T12:20:10.000Z</time>
      </trkpt>
      <trkpt lat="48.71486" lon="1.73559">
        <ele>155.60000610352</ele>
        <time>2013-01-02T12:20:16.000Z</time>
      </trkpt>
      <trkpt lat="48.71493" lon="1.73557">
        <ele>154.60000610352</ele>
        <time>2013-01-02T12:20:22.000Z</time>
      </trkpt>
      <trkpt lat="48.71499" lon="1.73554">
        <ele>154</ele>
        <time>2013-01-02T12:20:26.000Z</time>
      </trkpt>
      <trkpt lat="48.71503" lon="1.73553">
        <ele>153.39999389648</ele>
        <time>2013-01-02T12:20:29.000Z</time>
      </trkpt>
      <trkpt lat="48.71509" lon="1.73552">
        <ele>152.80000305176</ele>
        <time>2013-01-02T12:20:33.000Z</time>
      </trkpt>
      <trkpt lat="48.71519" lon="1.73552">
        <ele>151.60000610352</ele>
        <time>2013-01-02T12:20:41.000Z</time>
      </trkpt>
      <trkpt lat="48.7152" lon="1.73552">
        <ele>151.60000610352</ele>
        <time>2013-01-02T12:20:42.000Z</time>
      </trkpt>
      <trkpt lat="48.7153" lon="1.73552">
        <ele>150.39999389648</ele>
        <time>2013-01-02T12:20:49.000Z</time>
      </trkpt>
      <trkpt lat="48.71537" lon="1.7355">
        <ele>149.60000610352</ele>
        <time>2013-01-02T12:20:54.000Z</time>
      </trkpt>
      <trkpt lat="48.71544" lon="1.73548">
        <ele>148.80000305176</ele>
        <time>2013-01-02T12:20:59.000Z</time>
      </trkpt>
      <trkpt lat="48.71554" lon="1.73545">
        <ele>147.60000610352</ele>
        <time>2013-01-02T12:21:06.000Z</time>
      </trkpt>
      <trkpt lat="48.71562" lon="1.73542">
        <ele>146.60000610352</ele>
        <time>2013-01-02T12:21:12.000Z</time>
      </trkpt>
      <trkpt lat="48.71578" lon="1.73536">
        <ele>144.80000305176</ele>
        <time>2013-01-02T12:21:22.000Z</time>
      </trkpt>
      <trkpt lat="48.71588" lon="1.73536">
        <ele>144</ele>
        <time>2013-01-02T12:21:28.000Z</time>
      </trkpt>
      <trkpt lat="48.71597" lon="1.73535">
        <ele>143.60000610352</ele>
        <time>2013-01-02T12:21:33.000Z</time>
      </trkpt>
      <trkpt lat="48.71605" lon="1.73534">
        <ele>143.19999694824</ele>
        <time>2013-01-02T12:21:38.000Z</time>
      </trkpt>
      <trkpt lat="48.7161" lon="1.73534">
        <ele>143</ele>
        <time>2013-01-02T12:21:41.000Z</time>
      </trkpt>
      <trkpt lat="48.71618" lon="1.73534">
        <ele>142.39999389648</ele>
        <time>2013-01-02T12:21:46.000Z</time>
      </trkpt>
      <trkpt lat="48.71624" lon="1.73531">
        <ele>142.19999694824</ele>
        <time>2013-01-02T12:21:51.000Z</time>
      </trkpt>
      <trkpt lat="48.71637" lon="1.73525">
        <ele>141.39999389648</ele>
        <time>2013-01-02T12:22:00.000Z</time>
      </trkpt>
      <trkpt lat="48.71646" lon="1.73524">
        <ele>141</ele>
        <time>2013-01-02T12:22:06.000Z</time>
      </trkpt>
      <trkpt lat="48.71654" lon="1.7352">
        <ele>140.60000610352</ele>
        <time>2013-01-02T12:22:12.000Z</time>
      </trkpt>
      <trkpt lat="48.71663" lon="1.73517">
        <ele>140.19999694824</ele>
        <time>2013-01-02T12:22:18.000Z</time>
      </trkpt>
      <trkpt lat="48.71669" lon="1.73516">
        <ele>139.80000305176</ele>
        <time>2013-01-02T12:22:24.000Z</time>
      </trkpt>
      <trkpt lat="48.71674" lon="1.73515">
        <ele>139.60000610352</ele>
        <time>2013-01-02T12:22:27.000Z</time>
      </trkpt>
      <trkpt lat="48.71684" lon="1.73513">
        <ele>139.39999389648</ele>
        <time>2013-01-02T12:22:33.000Z</time>
      </trkpt>
      <trkpt lat="48.71688" lon="1.7351">
        <ele>139.19999694824</ele>
        <time>2013-01-02T12:22:36.000Z</time>
      </trkpt>
      <trkpt lat="48.717" lon="1.73508">
        <ele>138.80000305176</ele>
        <time>2013-01-02T12:22:45.000Z</time>
      </trkpt>
      <trkpt lat="48.71712" lon="1.73508">
        <ele>138.39999389648</ele>
        <time>2013-01-02T12:22:52.000Z</time>
      </trkpt>
      <trkpt lat="48.71721" lon="1.73505">
        <ele>138</ele>
        <time>2013-01-02T12:22:58.000Z</time>
      </trkpt>
      <trkpt lat="48.71732" lon="1.73504">
        <ele>137.60000610352</ele>
        <time>2013-01-02T12:23:05.000Z</time>
      </trkpt>
      <trkpt lat="48.71748" lon="1.73504">
        <ele>137.19999694824</ele>
        <time>2013-01-02T12:23:12.000Z</time>
      </trkpt>
      <trkpt lat="48.71762" lon="1.73504">
        <ele>136.60000610352</ele>
        <time>2013-01-02T12:23:16.000Z</time>
      </trkpt>
      <trkpt lat="48.71773" lon="1.73526">
        <ele>137</ele>
        <time>2013-01-02T12:23:22.000Z</time>
      </trkpt>
      <trkpt lat="48.71776" lon="1.73554">
        <ele>137.80000305176</ele>
        <time>2013-01-02T12:23:27.000Z</time>
      </trkpt>
      <trkpt lat="48.7178" lon="1.73577">
        <ele>138.19999694824</ele>
        <time>2013-01-02T12:23:32.000Z</time>
      </trkpt>
      <trkpt lat="48.71781" lon="1.73592">
        <ele>138.60000610352</ele>
        <time>2013-01-02T12:23:37.000Z</time>
      </trkpt>
      <trkpt lat="48.7178" lon="1.73606">
        <ele>138.60000610352</ele>
        <time>2013-01-02T12:23:44.000Z</time>
      </trkpt>
      <trkpt lat="48.71782" lon="1.73622">
        <ele>138.80000305176</ele>
        <time>2013-01-02T12:23:51.000Z</time>
      </trkpt>
      <trkpt lat="48.71783" lon="1.7364">
        <ele>138.80000305176</ele>
        <time>2013-01-02T12:23:59.000Z</time>
      </trkpt>
      <trkpt lat="48.71785" lon="1.73655">
        <ele>139</ele>
        <time>2013-01-02T12:24:06.000Z</time>
      </trkpt>
      <trkpt lat="48.71788" lon="1.73668">
        <ele>139</ele>
        <time>2013-01-02T12:24:12.000Z</time>
      </trkpt>
      <trkpt lat="48.7179" lon="1.73684">
        <ele>138.60000610352</ele>
        <time>2013-01-02T12:24:17.000Z</time>
      </trkpt>
      <trkpt lat="48.71793" lon="1.73712">
        <ele>137.80000305176</ele>
        <time>2013-01-02T12:24:23.000Z</time>
      </trkpt>
      <trkpt lat="48.71798" lon="1.73741">
        <ele>137</ele>
        <time>2013-01-02T12:24:28.000Z</time>
      </trkpt>
      <trkpt lat="48.71805" lon="1.73767">
        <ele>136.80000305176</ele>
        <time>2013-01-02T12:24:32.000Z</time>
      </trkpt>
      <trkpt lat="48.71818" lon="1.73806">
        <ele>136.80000305176</ele>
        <time>2013-01-02T12:24:38.000Z</time>
      </trkpt>
      <trkpt lat="48.71833" lon="1.73848">
        <ele>136.80000305176</ele>
        <time>2013-01-02T12:24:45.000Z</time>
      </trkpt>
      <trkpt lat="48.71844" lon="1.73881">
        <ele>136</ele>
        <time>2013-01-02T12:24:50.000Z</time>
      </trkpt>
      <trkpt lat="48.71847" lon="1.73894">
        <ele>135.80000305176</ele>
        <time>2013-01-02T12:24:52.000Z</time>
      </trkpt>
      <trkpt lat="48.71853" lon="1.73914">
        <ele>135.39999389648</ele>
        <time>2013-01-02T12:24:55.000Z</time>
      </trkpt>
      <trkpt lat="48.71859" lon="1.73932">
        <ele>135.80000305176</ele>
        <time>2013-01-02T12:24:58.000Z</time>
      </trkpt>
      <trkpt lat="48.71863" lon="1.73945">
        <ele>136</ele>
        <time>2013-01-02T12:25:00.000Z</time>
      </trkpt>
      <trkpt lat="48.71877" lon="1.73991">
        <ele>136.60000610352</ele>
        <time>2013-01-02T12:25:08.000Z</time>
      </trkpt>
      <trkpt lat="48.71888" lon="1.74021">
        <ele>137</ele>
        <time>2013-01-02T12:25:13.000Z</time>
      </trkpt>
      <trkpt lat="48.71891" lon="1.74034">
        <ele>137.39999389648</ele>
        <time>2013-01-02T12:25:15.000Z</time>
      </trkpt>
      <trkpt lat="48.71895" lon="1.74045">
        <ele>137.39999389648</ele>
        <time>2013-01-02T12:25:17.000Z</time>
      </trkpt>
      <trkpt lat="48.71897" lon="1.74059">
        <ele>137.80000305176</ele>
        <time>2013-01-02T12:25:19.000Z</time>
      </trkpt>
      <trkpt lat="48.71908" lon="1.74096">
        <ele>137.39999389648</ele>
        <time>2013-01-02T12:25:25.000Z</time>
      </trkpt>
      <trkpt lat="48.71923" lon="1.74139">
        <ele>136</ele>
        <time>2013-01-02T12:25:33.000Z</time>
      </trkpt>
      <trkpt lat="48.71938" lon="1.74188">
        <ele>136.39999389648</ele>
        <time>2013-01-02T12:25:41.000Z</time>
      </trkpt>
      <trkpt lat="48.7194" lon="1.74194">
        <ele>136.60000610352</ele>
        <time>2013-01-02T12:25:42.000Z</time>
      </trkpt>
      <trkpt lat="48.71955" lon="1.74243">
        <ele>139</ele>
        <time>2013-01-02T12:25:50.000Z</time>
      </trkpt>
      <trkpt lat="48.71958" lon="1.74261">
        <ele>139.80000305176</ele>
        <time>2013-01-02T12:25:53.000Z</time>
      </trkpt>
      <trkpt lat="48.7196" lon="1.74273">
        <ele>139.80000305176</ele>
        <time>2013-01-02T12:25:55.000Z</time>
      </trkpt>
      <trkpt lat="48.71964" lon="1.74307">
        <ele>140.39999389648</ele>
        <time>2013-01-02T12:26:00.000Z</time>
      </trkpt>
      <trkpt lat="48.71968" lon="1.74341">
        <ele>140.80000305176</ele>
        <time>2013-01-02T12:26:05.000Z</time>
      </trkpt>
      <trkpt lat="48.71969" lon="1.74354">
        <ele>140.60000610352</ele>
        <time>2013-01-02T12:26:07.000Z</time>
      </trkpt>
      <trkpt lat="48.71971" lon="1.74392">
        <ele>140.19999694824</ele>
        <time>2013-01-02T12:26:13.000Z</time>
      </trkpt>
      <trkpt lat="48.71972" lon="1.74429">
        <ele>139.60000610352</ele>
        <time>2013-01-02T12:26:19.000Z</time>
      </trkpt>
      <trkpt lat="48.71972" lon="1.74447">
        <ele>139.39999389648</ele>
        <time>2013-01-02T12:26:22.000Z</time>
      </trkpt>
      <trkpt lat="48.71977" lon="1.74521">
        <ele>138.80000305176</ele>
        <time>2013-01-02T12:26:33.000Z</time>
      </trkpt>
      <trkpt lat="48.7198" lon="1.7457">
        <ele>139.60000610352</ele>
        <time>2013-01-02T12:26:40.000Z</time>
      </trkpt>
      <trkpt lat="48.71982" lon="1.74618">
        <ele>140.19999694824</ele>
        <time>2013-01-02T12:26:47.000Z</time>
      </trkpt>
      <trkpt lat="48.71983" lon="1.74647">
        <ele>140.60000610352</ele>
        <time>2013-01-02T12:26:51.000Z</time>
      </trkpt>
      <trkpt lat="48.71984" lon="1.74661">
        <ele>140.80000305176</ele>
        <time>2013-01-02T12:26:53.000Z</time>
      </trkpt>
      <trkpt lat="48.71983" lon="1.74719">
        <ele>141.60000610352</ele>
        <time>2013-01-02T12:27:01.000Z</time>
      </trkpt>
      <trkpt lat="48.71979" lon="1.74759">
        <ele>142.19999694824</ele>
        <time>2013-01-02T12:27:07.000Z</time>
      </trkpt>
      <trkpt lat="48.71977" lon="1.74791">
        <ele>142.39999389648</ele>
        <time>2013-01-02T12:27:12.000Z</time>
      </trkpt>
      <trkpt lat="48.71969" lon="1.74846">
        <ele>142.60000610352</ele>
        <time>2013-01-02T12:27:20.000Z</time>
      </trkpt>
      <trkpt lat="48.7196" lon="1.749">
        <ele>142.39999389648</ele>
        <time>2013-01-02T12:27:28.000Z</time>
      </trkpt>
      <trkpt lat="48.71957" lon="1.74918">
        <ele>142.39999389648</ele>
        <time>2013-01-02T12:27:31.000Z</time>
      </trkpt>
      <trkpt lat="48.71954" lon="1.74927">
        <ele>142.60000610352</ele>
        <time>2013-01-02T12:27:33.000Z</time>
      </trkpt>
      <trkpt lat="48.71942" lon="1.74966">
        <ele>143.60000610352</ele>
        <time>2013-01-02T12:27:41.000Z</time>
      </trkpt>
      <trkpt lat="48.71932" lon="1.74994">
        <ele>144.60000610352</ele>
        <time>2013-01-02T12:27:47.000Z</time>
      </trkpt>
      <trkpt lat="48.71921" lon="1.75021">
        <ele>145.19999694824</ele>
        <time>2013-01-02T12:27:53.000Z</time>
      </trkpt>
      <trkpt lat="48.71907" lon="1.75047">
        <ele>144.60000610352</ele>
        <time>2013-01-02T12:27:59.000Z</time>
      </trkpt>
      <trkpt lat="48.71898" lon="1.7508">
        <ele>144</ele>
        <time>2013-01-02T12:28:05.000Z</time>
      </trkpt>
      <trkpt lat="48.71894" lon="1.75117">
        <ele>143.19999694824</ele>
        <time>2013-01-02T12:28:11.000Z</time>
      </trkpt>
      <trkpt lat="48.71889" lon="1.75153">
        <ele>142.39999389648</ele>
        <time>2013-01-02T12:28:17.000Z</time>
      </trkpt>
      <trkpt lat="48.71885" lon="1.7517">
        <ele>142.60000610352</ele>
        <time>2013-01-02T12:28:20.000Z</time>
      </trkpt>
      <trkpt lat="48.7188" lon="1.75194">
        <ele>143.19999694824</ele>
        <time>2013-01-02T12:28:24.000Z</time>
      </trkpt>
      <trkpt lat="48.71876" lon="1.75211">
        <ele>143.60000610352</ele>
        <time>2013-01-02T12:28:27.000Z</time>
      </trkpt>
      <trkpt lat="48.7187" lon="1.75235">
        <ele>144.19999694824</ele>
        <time>2013-01-02T12:28:31.000Z</time>
      </trkpt>
      <trkpt lat="48.7186" lon="1.75273">
        <ele>144.39999389648</ele>
        <time>2013-01-02T12:28:38.000Z</time>
      </trkpt>
      <trkpt lat="48.71853" lon="1.75306">
        <ele>144</ele>
        <time>2013-01-02T12:28:44.000Z</time>
      </trkpt>
      <trkpt lat="48.7185" lon="1.75333">
        <ele>143.80000305176</ele>
        <time>2013-01-02T12:28:49.000Z</time>
      </trkpt>
      <trkpt lat="48.71853" lon="1.75369">
        <ele>144.39999389648</ele>
        <time>2013-01-02T12:28:56.000Z</time>
      </trkpt>
      <trkpt lat="48.71859" lon="1.75396">
        <ele>145</ele>
        <time>2013-01-02T12:29:01.000Z</time>
      </trkpt>
      <trkpt lat="48.71869" lon="1.75432">
        <ele>146.60000610352</ele>
        <time>2013-01-02T12:29:08.000Z</time>
      </trkpt>
      <trkpt lat="48.71877" lon="1.75463">
        <ele>148.19999694824</ele>
        <time>2013-01-02T12:29:15.000Z</time>
      </trkpt>
      <trkpt lat="48.71876" lon="1.75479">
        <ele>148.80000305176</ele>
        <time>2013-01-02T12:29:20.000Z</time>
      </trkpt>
      <trkpt lat="48.71876" lon="1.75486">
        <ele>149.19999694824</ele>
        <time>2013-01-02T12:29:24.000Z</time>
      </trkpt>
      <trkpt lat="48.71876" lon="1.75488">
        <ele>149.19999694824</ele>
        <time>2013-01-02T12:29:25.000Z</time>
      </trkpt>
      <trkpt lat="48.71873" lon="1.75496">
        <ele>149.80000305176</ele>
        <time>2013-01-02T12:29:31.000Z</time>
      </trkpt>
      <trkpt lat="48.71868" lon="1.75505">
        <ele>150.19999694824</ele>
        <time>2013-01-02T12:29:36.000Z</time>
      </trkpt>
      <trkpt lat="48.71863" lon="1.75512">
        <ele>150.39999389648</ele>
        <time>2013-01-02T12:29:40.000Z</time>
      </trkpt>
      <trkpt lat="48.7186" lon="1.75517">
        <ele>150.80000305176</ele>
        <time>2013-01-02T12:29:44.000Z</time>
      </trkpt>
      <trkpt lat="48.71855" lon="1.75529">
        <ele>151.39999389648</ele>
        <time>2013-01-02T12:29:51.000Z</time>
      </trkpt>
      <trkpt lat="48.71849" lon="1.75539">
        <ele>152</ele>
        <time>2013-01-02T12:29:58.000Z</time>
      </trkpt>
      <trkpt lat="48.71847" lon="1.75545">
        <ele>152.19999694824</ele>
        <time>2013-01-02T12:30:02.000Z</time>
      </trkpt>
      <trkpt lat="48.71848" lon="1.7556">
        <ele>152.80000305176</ele>
        <time>2013-01-02T12:30:10.000Z</time>
      </trkpt>
      <trkpt lat="48.71844" lon="1.75571">
        <ele>153.39999389648</ele>
        <time>2013-01-02T12:30:15.000Z</time>
      </trkpt>
      <trkpt lat="48.71843" lon="1.75576">
        <ele>153.80000305176</ele>
        <time>2013-01-02T12:30:17.000Z</time>
      </trkpt>
      <trkpt lat="48.71842" lon="1.75587">
        <ele>154.39999389648</ele>
        <time>2013-01-02T12:30:23.000Z</time>
      </trkpt>
      <trkpt lat="48.71842" lon="1.75592">
        <ele>154.60000610352</ele>
        <time>2013-01-02T12:30:26.000Z</time>
      </trkpt>
      <trkpt lat="48.71841" lon="1.75604">
        <ele>155</ele>
        <time>2013-01-02T12:30:33.000Z</time>
      </trkpt>
      <trkpt lat="48.7184" lon="1.75619">
        <ele>155.60000610352</ele>
        <time>2013-01-02T12:30:40.000Z</time>
      </trkpt>
      <trkpt lat="48.71839" lon="1.75629">
        <ele>156</ele>
        <time>2013-01-02T12:30:46.000Z</time>
      </trkpt>
      <trkpt lat="48.71839" lon="1.75638">
        <ele>156.39999389648</ele>
        <time>2013-01-02T12:30:51.000Z</time>
      </trkpt>
      <trkpt lat="48.71837" lon="1.75648">
        <ele>157</ele>
        <time>2013-01-02T12:30:56.000Z</time>
      </trkpt>
      <trkpt lat="48.71836" lon="1.75652">
        <ele>157.19999694824</ele>
        <time>2013-01-02T12:30:58.000Z</time>
      </trkpt>
      <trkpt lat="48.71835" lon="1.75656">
        <ele>157.39999389648</ele>
        <time>2013-01-02T12:31:02.000Z</time>
      </trkpt>
      <trkpt lat="48.71837" lon="1.75664">
        <ele>157.60000610352</ele>
        <time>2013-01-02T12:31:06.000Z</time>
      </trkpt>
      <trkpt lat="48.71836" lon="1.75673">
        <ele>157.80000305176</ele>
        <time>2013-01-02T12:31:10.000Z</time>
      </trkpt>
      <trkpt lat="48.71833" lon="1.75689">
        <ele>158.19999694824</ele>
        <time>2013-01-02T12:31:17.000Z</time>
      </trkpt>
      <trkpt lat="48.71832" lon="1.75702">
        <ele>158.39999389648</ele>
        <time>2013-01-02T12:31:23.000Z</time>
      </trkpt>
      <trkpt lat="48.71831" lon="1.75707">
        <ele>158.60000610352</ele>
        <time>2013-01-02T12:31:25.000Z</time>
      </trkpt>
      <trkpt lat="48.7183" lon="1.75719">
        <ele>158.80000305176</ele>
        <time>2013-01-02T12:31:31.000Z</time>
      </trkpt>
      <trkpt lat="48.7183" lon="1.75725">
        <ele>158.80000305176</ele>
        <time>2013-01-02T12:31:33.000Z</time>
      </trkpt>
      <trkpt lat="48.71828" lon="1.75738">
        <ele>159</ele>
        <time>2013-01-02T12:31:39.000Z</time>
      </trkpt>
      <trkpt lat="48.71821" lon="1.75757">
        <ele>159.80000305176</ele>
        <time>2013-01-02T12:31:48.000Z</time>
      </trkpt>
      <trkpt lat="48.71821" lon="1.75757">
        <ele>159.80000305176</ele>
        <time>2013-01-02T12:31:49.000Z</time>
      </trkpt>
      <trkpt lat="48.71817" lon="1.75763">
        <ele>160</ele>
        <time>2013-01-02T12:31:53.000Z</time>
      </trkpt>
      <trkpt lat="48.71815" lon="1.75772">
        <ele>160.39999389648</ele>
        <time>2013-01-02T12:31:58.000Z</time>
      </trkpt>
      <trkpt lat="48.7181" lon="1.75779">
        <ele>160.80000305176</ele>
        <time>2013-01-02T12:32:04.000Z</time>
      </trkpt>
      <trkpt lat="48.71804" lon="1.75796">
        <ele>161.19999694824</ele>
        <time>2013-01-02T12:32:11.000Z</time>
      </trkpt>
      <trkpt lat="48.71804" lon="1.758">
        <ele>161.19999694824</ele>
        <time>2013-01-02T12:32:15.000Z</time>
      </trkpt>
      <trkpt lat="48.71799" lon="1.75819">
        <ele>161.39999389648</ele>
        <time>2013-01-02T12:32:25.000Z</time>
      </trkpt>
      <trkpt lat="48.71796" lon="1.75831">
        <ele>161.60000610352</ele>
        <time>2013-01-02T12:32:32.000Z</time>
      </trkpt>
      <trkpt lat="48.71796" lon="1.75833">
        <ele>161.60000610352</ele>
        <time>2013-01-02T12:32:33.000Z</time>
      </trkpt>
      <trkpt lat="48.71794" lon="1.75841">
        <ele>161.80000305176</ele>
        <time>2013-01-02T12:32:37.000Z</time>
      </trkpt>
      <trkpt lat="48.71791" lon="1.75857">
        <ele>162.19999694824</ele>
        <time>2013-01-02T12:32:45.000Z</time>
      </trkpt>
      <trkpt lat="48.71791" lon="1.75861">
        <ele>162.39999389648</ele>
        <time>2013-01-02T12:32:47.000Z</time>
      </trkpt>
      <trkpt lat="48.71791" lon="1.75868">
        <ele>162.60000610352</ele>
        <time>2013-01-02T12:32:52.000Z</time>
      </trkpt>
      <trkpt lat="48.71787" lon="1.75883">
        <ele>163</ele>
        <time>2013-01-02T12:33:00.000Z</time>
      </trkpt>
      <trkpt lat="48.71784" lon="1.75898">
        <ele>163.39999389648</ele>
        <time>2013-01-02T12:33:08.000Z</time>
      </trkpt>
      <trkpt lat="48.71782" lon="1.7592">
        <ele>164</ele>
        <time>2013-01-02T12:33:18.000Z</time>
      </trkpt>
      <trkpt lat="48.71782" lon="1.75923">
        <ele>164</ele>
        <time>2013-01-02T12:33:20.000Z</time>
      </trkpt>
      <trkpt lat="48.7178" lon="1.75936">
        <ele>163.60000610352</ele>
        <time>2013-01-02T12:33:27.000Z</time>
      </trkpt>
      <trkpt lat="48.71777" lon="1.75953">
        <ele>163</ele>
        <time>2013-01-02T12:33:36.000Z</time>
      </trkpt>
      <trkpt lat="48.71773" lon="1.75964">
        <ele>162.60000610352</ele>
        <time>2013-01-02T12:33:43.000Z</time>
      </trkpt>
      <trkpt lat="48.71772" lon="1.7597">
        <ele>162.39999389648</ele>
        <time>2013-01-02T12:33:47.000Z</time>
      </trkpt>
      <trkpt lat="48.71771" lon="1.75985">
        <ele>162</ele>
        <time>2013-01-02T12:33:56.000Z</time>
      </trkpt>
      <trkpt lat="48.71768" lon="1.75994">
        <ele>161.60000610352</ele>
        <time>2013-01-02T12:34:02.000Z</time>
      </trkpt>
      <trkpt lat="48.71764" lon="1.76004">
        <ele>161.39999389648</ele>
        <time>2013-01-02T12:34:08.000Z</time>
      </trkpt>
      <trkpt lat="48.71759" lon="1.76018">
        <ele>161</ele>
        <time>2013-01-02T12:34:15.000Z</time>
      </trkpt>
      <trkpt lat="48.71754" lon="1.76031">
        <ele>160.60000610352</ele>
        <time>2013-01-02T12:34:23.000Z</time>
      </trkpt>
      <trkpt lat="48.71752" lon="1.76043">
        <ele>160.39999389648</ele>
        <time>2013-01-02T12:34:29.000Z</time>
      </trkpt>
      <trkpt lat="48.71747" lon="1.76057">
        <ele>160.19999694824</ele>
        <time>2013-01-02T12:34:36.000Z</time>
      </trkpt>
      <trkpt lat="48.71743" lon="1.76069">
        <ele>160</ele>
        <time>2013-01-02T12:34:42.000Z</time>
      </trkpt>
      <trkpt lat="48.71743" lon="1.76071">
        <ele>160</ele>
        <time>2013-01-02T12:34:43.000Z</time>
      </trkpt>
      <trkpt lat="48.71738" lon="1.76081">
        <ele>159.80000305176</ele>
        <time>2013-01-02T12:34:49.000Z</time>
      </trkpt>
      <trkpt lat="48.71734" lon="1.76084">
        <ele>159.80000305176</ele>
        <time>2013-01-02T12:34:52.000Z</time>
      </trkpt>
      <trkpt lat="48.7173" lon="1.7608">
        <ele>159.80000305176</ele>
        <time>2013-01-02T12:34:56.000Z</time>
      </trkpt>
      <trkpt lat="48.71722" lon="1.76058">
        <ele>160</ele>
        <time>2013-01-02T12:35:08.000Z</time>
      </trkpt>
      <trkpt lat="48.71716" lon="1.76041">
        <ele>160.19999694824</ele>
        <time>2013-01-02T12:35:17.000Z</time>
      </trkpt>
      <trkpt lat="48.71709" lon="1.76024">
        <ele>160.39999389648</ele>
        <time>2013-01-02T12:35:26.000Z</time>
      </trkpt>
      <trkpt lat="48.71702" lon="1.76008">
        <ele>160.80000305176</ele>
        <time>2013-01-02T12:35:35.000Z</time>
      </trkpt>
      <trkpt lat="48.71697" lon="1.75996">
        <ele>161</ele>
        <time>2013-01-02T12:35:41.000Z</time>
      </trkpt>
      <trkpt lat="48.71689" lon="1.75979">
        <ele>161.60000610352</ele>
        <time>2013-01-02T12:35:51.000Z</time>
      </trkpt>
      <trkpt lat="48.7168" lon="1.7596">
        <ele>162.19999694824</ele>
        <time>2013-01-02T12:36:02.000Z</time>
      </trkpt>
      <trkpt lat="48.71673" lon="1.75944">
        <ele>162.80000305176</ele>
        <time>2013-01-02T12:36:11.000Z</time>
      </trkpt>
      <trkpt lat="48.71667" lon="1.75933">
        <ele>163.19999694824</ele>
        <time>2013-01-02T12:36:18.000Z</time>
      </trkpt>
      <trkpt lat="48.71664" lon="1.75923">
        <ele>163.80000305176</ele>
        <time>2013-01-02T12:36:24.000Z</time>
      </trkpt>
      <trkpt lat="48.71662" lon="1.75918">
        <ele>164</ele>
        <time>2013-01-02T12:36:27.000Z</time>
      </trkpt>
      <trkpt lat="48.71654" lon="1.75917">
        <ele>164.39999389648</ele>
        <time>2013-01-02T12:36:35.000Z</time>
      </trkpt>
      <trkpt lat="48.71654" lon="1.75932">
        <ele>163.80000305176</ele>
        <time>2013-01-02T12:36:43.000Z</time>
      </trkpt>
      <trkpt lat="48.71653" lon="1.75948">
        <ele>163.19999694824</ele>
        <time>2013-01-02T12:36:50.000Z</time>
      </trkpt>
      <trkpt lat="48.71652" lon="1.75969">
        <ele>162.39999389648</ele>
        <time>2013-01-02T12:36:59.000Z</time>
      </trkpt>
      <trkpt lat="48.71652" lon="1.75986">
        <ele>161.80000305176</ele>
        <time>2013-01-02T12:37:07.000Z</time>
      </trkpt>
      <trkpt lat="48.71652" lon="1.76001">
        <ele>161.19999694824</ele>
        <time>2013-01-02T12:37:14.000Z</time>
      </trkpt>
      <trkpt lat="48.71651" lon="1.76019">
        <ele>160.80000305176</ele>
        <time>2013-01-02T12:37:22.000Z</time>
      </trkpt>
      <trkpt lat="48.7165" lon="1.76035">
        <ele>160.39999389648</ele>
        <time>2013-01-02T12:37:30.000Z</time>
      </trkpt>
      <trkpt lat="48.71652" lon="1.76056">
        <ele>160</ele>
        <time>2013-01-02T12:37:39.000Z</time>
      </trkpt>
      <trkpt lat="48.71653" lon="1.7607">
        <ele>159.60000610352</ele>
        <time>2013-01-02T12:37:46.000Z</time>
      </trkpt>
      <trkpt lat="48.71654" lon="1.76084">
        <ele>159.19999694824</ele>
        <time>2013-01-02T12:37:53.000Z</time>
      </trkpt>
      <trkpt lat="48.71657" lon="1.761">
        <ele>159</ele>
        <time>2013-01-02T12:38:01.000Z</time>
      </trkpt>
      <trkpt lat="48.7166" lon="1.76113">
        <ele>158.80000305176</ele>
        <time>2013-01-02T12:38:07.000Z</time>
      </trkpt>
      <trkpt lat="48.71663" lon="1.76133">
        <ele>158.39999389648</ele>
        <time>2013-01-02T12:38:17.000Z</time>
      </trkpt>
      <trkpt lat="48.71666" lon="1.76149">
        <ele>158.19999694824</ele>
        <time>2013-01-02T12:38:25.000Z</time>
      </trkpt>
      <trkpt lat="48.71667" lon="1.76164">
        <ele>158</ele>
        <time>2013-01-02T12:38:32.000Z</time>
      </trkpt>
      <trkpt lat="48.7167" lon="1.76179">
        <ele>157.80000305176</ele>
        <time>2013-01-02T12:38:39.000Z</time>
      </trkpt>
      <trkpt lat="48.71673" lon="1.76198">
        <ele>157.60000610352</ele>
        <time>2013-01-02T12:38:48.000Z</time>
      </trkpt>
      <trkpt lat="48.71675" lon="1.76219">
        <ele>157.39999389648</ele>
        <time>2013-01-02T12:38:58.000Z</time>
      </trkpt>
      <trkpt lat="48.71677" lon="1.76232">
        <ele>157.19999694824</ele>
        <time>2013-01-02T12:39:05.000Z</time>
      </trkpt>
      <trkpt lat="48.71679" lon="1.76249">
        <ele>157</ele>
        <time>2013-01-02T12:39:13.000Z</time>
      </trkpt>
      <trkpt lat="48.71682" lon="1.76263">
        <ele>156.80000305176</ele>
        <time>2013-01-02T12:39:20.000Z</time>
      </trkpt>
      <trkpt lat="48.71688" lon="1.76285">
        <ele>156.80000305176</ele>
        <time>2013-01-02T12:39:30.000Z</time>
      </trkpt>
      <trkpt lat="48.71689" lon="1.76298">
        <ele>156.80000305176</ele>
        <time>2013-01-02T12:39:36.000Z</time>
      </trkpt>
      <trkpt lat="48.71685" lon="1.7631">
        <ele>156.80000305176</ele>
        <time>2013-01-02T12:39:43.000Z</time>
      </trkpt>
      <trkpt lat="48.71675" lon="1.76313">
        <ele>156.80000305176</ele>
        <time>2013-01-02T12:39:50.000Z</time>
      </trkpt>
      <trkpt lat="48.71662" lon="1.76314">
        <ele>157</ele>
        <time>2013-01-02T12:39:59.000Z</time>
      </trkpt>
      <trkpt lat="48.71648" lon="1.76319">
        <ele>157.60000610352</ele>
        <time>2013-01-02T12:40:08.000Z</time>
      </trkpt>
      <trkpt lat="48.7164" lon="1.76321">
        <ele>157.80000305176</ele>
        <time>2013-01-02T12:40:13.000Z</time>
      </trkpt>
      <trkpt lat="48.71631" lon="1.76327">
        <ele>158.19999694824</ele>
        <time>2013-01-02T12:40:20.000Z</time>
      </trkpt>
      <trkpt lat="48.71621" lon="1.76333">
        <ele>158.60000610352</ele>
        <time>2013-01-02T12:40:27.000Z</time>
      </trkpt>
      <trkpt lat="48.7161" lon="1.76336">
        <ele>159</ele>
        <time>2013-01-02T12:40:35.000Z</time>
      </trkpt>
      <trkpt lat="48.71601" lon="1.76339">
        <ele>159.19999694824</ele>
        <time>2013-01-02T12:40:42.000Z</time>
      </trkpt>
      <trkpt lat="48.7159" lon="1.76345">
        <ele>159.60000610352</ele>
        <time>2013-01-02T12:40:50.000Z</time>
      </trkpt>
      <trkpt lat="48.71584" lon="1.76348">
        <ele>159.80000305176</ele>
        <time>2013-01-02T12:40:55.000Z</time>
      </trkpt>
      <trkpt lat="48.7158" lon="1.7635">
        <ele>160</ele>
        <time>2013-01-02T12:41:01.000Z</time>
      </trkpt>
      <trkpt lat="48.71574" lon="1.76348">
        <ele>160.39999389648</ele>
        <time>2013-01-02T12:41:26.000Z</time>
      </trkpt>
      <trkpt lat="48.71571" lon="1.76345">
        <ele>160.39999389648</ele>
        <time>2013-01-02T12:41:28.000Z</time>
      </trkpt>
      <trkpt lat="48.71562" lon="1.76347">
        <ele>161</ele>
        <time>2013-01-02T12:41:35.000Z</time>
      </trkpt>
      <trkpt lat="48.71555" lon="1.7635">
        <ele>161.19999694824</ele>
        <time>2013-01-02T12:41:41.000Z</time>
      </trkpt>
      <trkpt lat="48.71546" lon="1.76355">
        <ele>161.60000610352</ele>
        <time>2013-01-02T12:41:48.000Z</time>
      </trkpt>
      <trkpt lat="48.71536" lon="1.76355">
        <ele>162.19999694824</ele>
        <time>2013-01-02T12:41:56.000Z</time>
      </trkpt>
      <trkpt lat="48.71527" lon="1.76355">
        <ele>162.60000610352</ele>
        <time>2013-01-02T12:42:03.000Z</time>
      </trkpt>
      <trkpt lat="48.7152" lon="1.76355">
        <ele>163</ele>
        <time>2013-01-02T12:42:08.000Z</time>
      </trkpt>
      <trkpt lat="48.71519" lon="1.76355">
        <ele>163</ele>
        <time>2013-01-02T12:42:11.000Z</time>
      </trkpt>
      <trkpt lat="48.71514" lon="1.76354">
        <ele>163.19999694824</ele>
        <time>2013-01-02T12:42:17.000Z</time>
      </trkpt>
      <trkpt lat="48.71507" lon="1.76355">
        <ele>163.60000610352</ele>
        <time>2013-01-02T12:42:21.000Z</time>
      </trkpt>
      <trkpt lat="48.71499" lon="1.76355">
        <ele>164</ele>
        <time>2013-01-02T12:42:28.000Z</time>
      </trkpt>
      <trkpt lat="48.71493" lon="1.76355">
        <ele>164</ele>
        <time>2013-01-02T12:42:33.000Z</time>
      </trkpt>
      <trkpt lat="48.71481" lon="1.76359">
        <ele>164.19999694824</ele>
        <time>2013-01-02T12:42:41.000Z</time>
      </trkpt>
      <trkpt lat="48.71472" lon="1.76359">
        <ele>164.39999389648</ele>
        <time>2013-01-02T12:42:48.000Z</time>
      </trkpt>
      <trkpt lat="48.71464" lon="1.76357">
        <ele>164.60000610352</ele>
        <time>2013-01-02T12:42:55.000Z</time>
      </trkpt>
      <trkpt lat="48.71454" lon="1.76357">
        <ele>164.80000305176</ele>
        <time>2013-01-02T12:43:02.000Z</time>
      </trkpt>
      <trkpt lat="48.71443" lon="1.76357">
        <ele>165</ele>
        <time>2013-01-02T12:43:10.000Z</time>
      </trkpt>
      <trkpt lat="48.71433" lon="1.76355">
        <ele>165.19999694824</ele>
        <time>2013-01-02T12:43:17.000Z</time>
      </trkpt>
      <trkpt lat="48.71421" lon="1.76356">
        <ele>165.39999389648</ele>
        <time>2013-01-02T12:43:25.000Z</time>
      </trkpt>
      <trkpt lat="48.7141" lon="1.76358">
        <ele>165.60000610352</ele>
        <time>2013-01-02T12:43:33.000Z</time>
      </trkpt>
      <trkpt lat="48.71399" lon="1.7636">
        <ele>165.60000610352</ele>
        <time>2013-01-02T12:43:41.000Z</time>
      </trkpt>
      <trkpt lat="48.71388" lon="1.76363">
        <ele>165.80000305176</ele>
        <time>2013-01-02T12:43:50.000Z</time>
      </trkpt>
      <trkpt lat="48.71378" lon="1.76369">
        <ele>165.80000305176</ele>
        <time>2013-01-02T12:43:58.000Z</time>
      </trkpt>
      <trkpt lat="48.71366" lon="1.76374">
        <ele>165.80000305176</ele>
        <time>2013-01-02T12:44:06.000Z</time>
      </trkpt>
      <trkpt lat="48.71354" lon="1.76378">
        <ele>166</ele>
        <time>2013-01-02T12:44:14.000Z</time>
      </trkpt>
      <trkpt lat="48.71345" lon="1.76379">
        <ele>166</ele>
        <time>2013-01-02T12:44:21.000Z</time>
      </trkpt>
      <trkpt lat="48.71332" lon="1.76383">
        <ele>166</ele>
        <time>2013-01-02T12:44:30.000Z</time>
      </trkpt>
      <trkpt lat="48.71322" lon="1.76386">
        <ele>166.19999694824</ele>
        <time>2013-01-02T12:44:38.000Z</time>
      </trkpt>
      <trkpt lat="48.71316" lon="1.76388">
        <ele>166.39999389648</ele>
        <time>2013-01-02T12:44:43.000Z</time>
      </trkpt>
      <trkpt lat="48.71315" lon="1.76389">
        <ele>166.39999389648</ele>
        <time>2013-01-02T12:44:46.000Z</time>
      </trkpt>
      <trkpt lat="48.7131" lon="1.7639">
        <ele>166.39999389648</ele>
        <time>2013-01-02T12:44:54.000Z</time>
      </trkpt>
      <trkpt lat="48.71295" lon="1.76394">
        <ele>166.80000305176</ele>
        <time>2013-01-02T12:45:04.000Z</time>
      </trkpt>
      <trkpt lat="48.71282" lon="1.76398">
        <ele>167.19999694824</ele>
        <time>2013-01-02T12:45:13.000Z</time>
      </trkpt>
      <trkpt lat="48.71276" lon="1.76399">
        <ele>167.19999694824</ele>
        <time>2013-01-02T12:45:19.000Z</time>
      </trkpt>
      <trkpt lat="48.71269" lon="1.76402">
        <ele>167.39999389648</ele>
        <time>2013-01-02T12:45:26.000Z</time>
      </trkpt>
      <trkpt lat="48.71259" lon="1.76404">
        <ele>167.60000610352</ele>
        <time>2013-01-02T12:45:34.000Z</time>
      </trkpt>
      <trkpt lat="48.7125" lon="1.76406">
        <ele>167.80000305176</ele>
        <time>2013-01-02T12:45:41.000Z</time>
      </trkpt>
      <trkpt lat="48.71242" lon="1.76407">
        <ele>168</ele>
        <time>2013-01-02T12:45:48.000Z</time>
      </trkpt>
      <trkpt lat="48.71234" lon="1.76408">
        <ele>168.19999694824</ele>
        <time>2013-01-02T12:45:54.000Z</time>
      </trkpt>
      <trkpt lat="48.71225" lon="1.76411">
        <ele>168.19999694824</ele>
        <time>2013-01-02T12:46:02.000Z</time>
      </trkpt>
      <trkpt lat="48.71212" lon="1.76414">
        <ele>168.39999389648</ele>
        <time>2013-01-02T12:46:10.000Z</time>
      </trkpt>
      <trkpt lat="48.71197" lon="1.76417">
        <ele>168.60000610352</ele>
        <time>2013-01-02T12:46:20.000Z</time>
      </trkpt>
      <trkpt lat="48.71183" lon="1.7642">
        <ele>168.60000610352</ele>
        <time>2013-01-02T12:46:30.000Z</time>
      </trkpt>
      <trkpt lat="48.71168" lon="1.76423">
        <ele>168.60000610352</ele>
        <time>2013-01-02T12:46:40.000Z</time>
      </trkpt>
      <trkpt lat="48.71158" lon="1.76425">
        <ele>168.60000610352</ele>
        <time>2013-01-02T12:46:47.000Z</time>
      </trkpt>
      <trkpt lat="48.7115" lon="1.76427">
        <ele>168.60000610352</ele>
        <time>2013-01-02T12:46:53.000Z</time>
      </trkpt>
      <trkpt lat="48.71141" lon="1.7643">
        <ele>168.39999389648</ele>
        <time>2013-01-02T12:46:59.000Z</time>
      </trkpt>
      <trkpt lat="48.71128" lon="1.76434">
        <ele>168.39999389648</ele>
        <time>2013-01-02T12:47:08.000Z</time>
      </trkpt>
      <trkpt lat="48.71113" lon="1.76442">
        <ele>168.19999694824</ele>
        <time>2013-01-02T12:47:19.000Z</time>
      </trkpt>
      <trkpt lat="48.71102" lon="1.76447">
        <ele>168</ele>
        <time>2013-01-02T12:47:27.000Z</time>
      </trkpt>
      <trkpt lat="48.71087" lon="1.76453">
        <ele>168</ele>
        <time>2013-01-02T12:47:38.000Z</time>
      </trkpt>
      <trkpt lat="48.71076" lon="1.76457">
        <ele>168</ele>
        <time>2013-01-02T12:47:44.000Z</time>
      </trkpt>
      <trkpt lat="48.71059" lon="1.76463">
        <ele>168.39999389648</ele>
        <time>2013-01-02T12:47:52.000Z</time>
      </trkpt>
      <trkpt lat="48.71043" lon="1.76468">
        <ele>168.80000305176</ele>
        <time>2013-01-02T12:47:57.000Z</time>
      </trkpt>
      <trkpt lat="48.71009" lon="1.76475">
        <ele>169.60000610352</ele>
        <time>2013-01-02T12:48:06.000Z</time>
      </trkpt>
      <trkpt lat="48.70963" lon="1.76475">
        <ele>170.39999389648</ele>
        <time>2013-01-02T12:48:18.000Z</time>
      </trkpt>
      <trkpt lat="48.70947" lon="1.76475">
        <ele>170.80000305176</ele>
        <time>2013-01-02T12:48:24.000Z</time>
      </trkpt>
      <trkpt lat="48.70938" lon="1.76476">
        <ele>170.80000305176</ele>
        <time>2013-01-02T12:48:30.000Z</time>
      </trkpt>
      <trkpt lat="48.70925" lon="1.76477">
        <ele>171</ele>
        <time>2013-01-02T12:48:39.000Z</time>
      </trkpt>
      <trkpt lat="48.70912" lon="1.76476">
        <ele>171.19999694824</ele>
        <time>2013-01-02T12:48:48.000Z</time>
      </trkpt>
      <trkpt lat="48.70908" lon="1.76477">
        <ele>171.19999694824</ele>
        <time>2013-01-02T12:48:51.000Z</time>
      </trkpt>
      <trkpt lat="48.70898" lon="1.76476">
        <ele>171.39999389648</ele>
        <time>2013-01-02T12:48:58.000Z</time>
      </trkpt>
      <trkpt lat="48.7089" lon="1.76476">
        <ele>171.60000610352</ele>
        <time>2013-01-02T12:49:04.000Z</time>
      </trkpt>
      <trkpt lat="48.70875" lon="1.76476">
        <ele>171.60000610352</ele>
        <time>2013-01-02T12:49:14.000Z</time>
      </trkpt>
      <trkpt lat="48.70866" lon="1.76476">
        <ele>171.80000305176</ele>
        <time>2013-01-02T12:49:20.000Z</time>
      </trkpt>
      <trkpt lat="48.70854" lon="1.76477">
        <ele>172</ele>
        <time>2013-01-02T12:49:28.000Z</time>
      </trkpt>
      <trkpt lat="48.70836" lon="1.76478">
        <ele>172.19999694824</ele>
        <time>2013-01-02T12:49:40.000Z</time>
      </trkpt>
      <trkpt lat="48.70818" lon="1.76478">
        <ele>172.39999389648</ele>
        <time>2013-01-02T12:49:52.000Z</time>
      </trkpt>
      <trkpt lat="48.70803" lon="1.76479">
        <ele>172.60000610352</ele>
        <time>2013-01-02T12:50:02.000Z</time>
      </trkpt>
      <trkpt lat="48.70793" lon="1.76477">
        <ele>172.60000610352</ele>
        <time>2013-01-02T12:50:09.000Z</time>
      </trkpt>
      <trkpt lat="48.70782" lon="1.76476">
        <ele>172.80000305176</ele>
        <time>2013-01-02T12:50:16.000Z</time>
      </trkpt>
      <trkpt lat="48.70775" lon="1.76476">
        <ele>172.80000305176</ele>
        <time>2013-01-02T12:50:21.000Z</time>
      </trkpt>
      <trkpt lat="48.7076" lon="1.76476">
        <ele>173</ele>
        <time>2013-01-02T12:50:31.000Z</time>
      </trkpt>
      <trkpt lat="48.70747" lon="1.76474">
        <ele>173.19999694824</ele>
        <time>2013-01-02T12:50:40.000Z</time>
      </trkpt>
      <trkpt lat="48.70744" lon="1.76473">
        <ele>173.19999694824</ele>
        <time>2013-01-02T12:50:42.000Z</time>
      </trkpt>
      <trkpt lat="48.70738" lon="1.76472">
        <ele>173</ele>
        <time>2013-01-02T12:50:48.000Z</time>
      </trkpt>
      <trkpt lat="48.70738" lon="1.76472">
        <ele>173</ele>
        <time>2013-01-02T12:50:50.000Z</time>
      </trkpt>
      <trkpt lat="48.70729" lon="1.76471">
        <ele>173</ele>
        <time>2013-01-02T12:51:08.000Z</time>
      </trkpt>
      <trkpt lat="48.70719" lon="1.76466">
        <ele>173</ele>
        <time>2013-01-02T12:51:14.000Z</time>
      </trkpt>
      <trkpt lat="48.70705" lon="1.76461">
        <ele>172.80000305176</ele>
        <time>2013-01-02T12:51:24.000Z</time>
      </trkpt>
      <trkpt lat="48.70697" lon="1.76459">
        <ele>172.80000305176</ele>
        <time>2013-01-02T12:51:30.000Z</time>
      </trkpt>
      <trkpt lat="48.70684" lon="1.76455">
        <ele>172.60000610352</ele>
        <time>2013-01-02T12:51:39.000Z</time>
      </trkpt>
      <trkpt lat="48.70673" lon="1.76453">
        <ele>172.60000610352</ele>
        <time>2013-01-02T12:51:47.000Z</time>
      </trkpt>
      <trkpt lat="48.7067" lon="1.76452">
        <ele>172.60000610352</ele>
        <time>2013-01-02T12:51:49.000Z</time>
      </trkpt>
      <trkpt lat="48.70655" lon="1.76445">
        <ele>172.39999389648</ele>
        <time>2013-01-02T12:52:00.000Z</time>
      </trkpt>
      <trkpt lat="48.70647" lon="1.76442">
        <ele>172.39999389648</ele>
        <time>2013-01-02T12:52:06.000Z</time>
      </trkpt>
      <trkpt lat="48.70646" lon="1.76442">
        <ele>172.39999389648</ele>
        <time>2013-01-02T12:52:10.000Z</time>
      </trkpt>
      <trkpt lat="48.70639" lon="1.7644">
        <ele>172.19999694824</ele>
        <time>2013-01-02T12:52:26.000Z</time>
      </trkpt>
      <trkpt lat="48.70632" lon="1.76438">
        <ele>172.19999694824</ele>
        <time>2013-01-02T12:52:30.000Z</time>
      </trkpt>
      <trkpt lat="48.70615" lon="1.76431">
        <ele>172.19999694824</ele>
        <time>2013-01-02T12:52:42.000Z</time>
      </trkpt>
      <trkpt lat="48.70603" lon="1.76426">
        <ele>172</ele>
        <time>2013-01-02T12:52:50.000Z</time>
      </trkpt>
      <trkpt lat="48.70591" lon="1.76423">
        <ele>172</ele>
        <time>2013-01-02T12:52:58.000Z</time>
      </trkpt>
      <trkpt lat="48.70575" lon="1.76417">
        <ele>172.19999694824</ele>
        <time>2013-01-02T12:53:09.000Z</time>
      </trkpt>
      <trkpt lat="48.70563" lon="1.76412">
        <ele>172.60000610352</ele>
        <time>2013-01-02T12:53:17.000Z</time>
      </trkpt>
      <trkpt lat="48.70545" lon="1.76405">
        <ele>173</ele>
        <time>2013-01-02T12:53:29.000Z</time>
      </trkpt>
      <trkpt lat="48.70534" lon="1.76401">
        <ele>173.19999694824</ele>
        <time>2013-01-02T12:53:37.000Z</time>
      </trkpt>
      <trkpt lat="48.70524" lon="1.76395">
        <ele>173.19999694824</ele>
        <time>2013-01-02T12:53:45.000Z</time>
      </trkpt>
      <trkpt lat="48.70514" lon="1.76388">
        <ele>173.19999694824</ele>
        <time>2013-01-02T12:53:53.000Z</time>
      </trkpt>
      <trkpt lat="48.70506" lon="1.76384">
        <ele>173.19999694824</ele>
        <time>2013-01-02T12:53:59.000Z</time>
      </trkpt>
      <trkpt lat="48.70496" lon="1.76381">
        <ele>173.39999389648</ele>
        <time>2013-01-02T12:54:05.000Z</time>
      </trkpt>
      <trkpt lat="48.70491" lon="1.76379">
        <ele>173.39999389648</ele>
        <time>2013-01-02T12:54:09.000Z</time>
      </trkpt>
      <trkpt lat="48.70483" lon="1.76377">
        <ele>173.60000610352</ele>
        <time>2013-01-02T12:54:15.000Z</time>
      </trkpt>
      <trkpt lat="48.70481" lon="1.76377">
        <ele>173.60000610352</ele>
        <time>2013-01-02T12:54:16.000Z</time>
      </trkpt>
      <trkpt lat="48.70476" lon="1.76376">
        <ele>173.80000305176</ele>
        <time>2013-01-02T12:54:19.000Z</time>
      </trkpt>
      <trkpt lat="48.70468" lon="1.76378">
        <ele>174.19999694824</ele>
        <time>2013-01-02T12:54:24.000Z</time>
      </trkpt>
      <trkpt lat="48.70459" lon="1.76383">
        <ele>174.80000305176</ele>
        <time>2013-01-02T12:54:30.000Z</time>
      </trkpt>
      <trkpt lat="48.70451" lon="1.76376">
        <ele>174.60000610352</ele>
        <time>2013-01-02T12:54:37.000Z</time>
      </trkpt>
      <trkpt lat="48.70452" lon="1.76368">
        <ele>174.19999694824</ele>
        <time>2013-01-02T12:54:40.000Z</time>
      </trkpt>
      <trkpt lat="48.70451" lon="1.76355">
        <ele>173.60000610352</ele>
        <time>2013-01-02T12:54:46.000Z</time>
      </trkpt>
      <trkpt lat="48.70452" lon="1.76338">
        <ele>172.80000305176</ele>
        <time>2013-01-02T12:54:54.000Z</time>
      </trkpt>
      <trkpt lat="48.7045" lon="1.76321">
        <ele>172.60000610352</ele>
        <time>2013-01-02T12:55:02.000Z</time>
      </trkpt>
      <trkpt lat="48.70447" lon="1.76311">
        <ele>172.80000305176</ele>
        <time>2013-01-02T12:55:07.000Z</time>
      </trkpt>
      <trkpt lat="48.70446" lon="1.76297">
        <ele>172.60000610352</ele>
        <time>2013-01-02T12:55:13.000Z</time>
      </trkpt>
      <trkpt lat="48.70447" lon="1.7629">
        <ele>172.60000610352</ele>
        <time>2013-01-02T12:55:17.000Z</time>
      </trkpt>
      <trkpt lat="48.70447" lon="1.76279">
        <ele>172.60000610352</ele>
        <time>2013-01-02T12:55:22.000Z</time>
      </trkpt>
      <trkpt lat="48.70451" lon="1.76265">
        <ele>172.39999389648</ele>
        <time>2013-01-02T12:55:30.000Z</time>
      </trkpt>
      <trkpt lat="48.70454" lon="1.76251">
        <ele>172.19999694824</ele>
        <time>2013-01-02T12:55:37.000Z</time>
      </trkpt>
      <trkpt lat="48.70455" lon="1.76249">
        <ele>172</ele>
        <time>2013-01-02T12:55:38.000Z</time>
      </trkpt>
      <trkpt lat="48.70456" lon="1.76246">
        <ele>172.19999694824</ele>
        <time>2013-01-02T12:55:40.000Z</time>
      </trkpt>
      <trkpt lat="48.70459" lon="1.76227">
        <ele>172.39999389648</ele>
        <time>2013-01-02T12:55:50.000Z</time>
      </trkpt>
      <trkpt lat="48.70459" lon="1.76224">
        <ele>172.39999389648</ele>
        <time>2013-01-02T12:55:51.000Z</time>
      </trkpt>
      <trkpt lat="48.70459" lon="1.76216">
        <ele>172.80000305176</ele>
        <time>2013-01-02T12:55:55.000Z</time>
      </trkpt>
      <trkpt lat="48.70457" lon="1.76206">
        <ele>173</ele>
        <time>2013-01-02T12:55:59.000Z</time>
      </trkpt>
      <trkpt lat="48.70456" lon="1.76195">
        <ele>173.39999389648</ele>
        <time>2013-01-02T12:56:04.000Z</time>
      </trkpt>
      <trkpt lat="48.70455" lon="1.76181">
        <ele>173.80000305176</ele>
        <time>2013-01-02T12:56:11.000Z</time>
      </trkpt>
      <trkpt lat="48.70454" lon="1.76168">
        <ele>174</ele>
        <time>2013-01-02T12:56:17.000Z</time>
      </trkpt>
      <trkpt lat="48.70451" lon="1.76158">
        <ele>174.39999389648</ele>
        <time>2013-01-02T12:56:22.000Z</time>
      </trkpt>
      <trkpt lat="48.70451" lon="1.76154">
        <ele>174.39999389648</ele>
        <time>2013-01-02T12:56:24.000Z</time>
      </trkpt>
      <trkpt lat="48.70452" lon="1.76152">
        <ele>174.39999389648</ele>
        <time>2013-01-02T12:56:26.000Z</time>
      </trkpt>
      <trkpt lat="48.70454" lon="1.76142">
        <ele>174.39999389648</ele>
        <time>2013-01-02T12:56:32.000Z</time>
      </trkpt>
      <trkpt lat="48.70456" lon="1.7613">
        <ele>174.39999389648</ele>
        <time>2013-01-02T12:56:38.000Z</time>
      </trkpt>
      <trkpt lat="48.70456" lon="1.76127">
        <ele>174.39999389648</ele>
        <time>2013-01-02T12:56:39.000Z</time>
      </trkpt>
      <trkpt lat="48.70458" lon="1.76106">
        <ele>174.60000610352</ele>
        <time>2013-01-02T12:56:48.000Z</time>
      </trkpt>
      <trkpt lat="48.70459" lon="1.76098">
        <ele>174.60000610352</ele>
        <time>2013-01-02T12:56:52.000Z</time>
      </trkpt>
      <trkpt lat="48.70464" lon="1.76084">
        <ele>174.60000610352</ele>
        <time>2013-01-02T12:57:00.000Z</time>
      </trkpt>
      <trkpt lat="48.70465" lon="1.76077">
        <ele>175</ele>
        <time>2013-01-02T12:57:03.000Z</time>
      </trkpt>
      <trkpt lat="48.70469" lon="1.76062">
        <ele>175.60000610352</ele>
        <time>2013-01-02T12:57:10.000Z</time>
      </trkpt>
      <trkpt lat="48.70471" lon="1.76051">
        <ele>176</ele>
        <time>2013-01-02T12:57:16.000Z</time>
      </trkpt>
      <trkpt lat="48.70474" lon="1.7604">
        <ele>176.60000610352</ele>
        <time>2013-01-02T12:57:22.000Z</time>
      </trkpt>
      <trkpt lat="48.70473" lon="1.76032">
        <ele>177</ele>
        <time>2013-01-02T12:57:25.000Z</time>
      </trkpt>
      <trkpt lat="48.70473" lon="1.76017">
        <ele>178</ele>
        <time>2013-01-02T12:57:31.000Z</time>
      </trkpt>
      <trkpt lat="48.70476" lon="1.76007">
        <ele>178.39999389648</ele>
        <time>2013-01-02T12:57:37.000Z</time>
      </trkpt>
      <trkpt lat="48.7048" lon="1.75994">
        <ele>178.80000305176</ele>
        <time>2013-01-02T12:57:44.000Z</time>
      </trkpt>
      <trkpt lat="48.70482" lon="1.75991">
        <ele>179</ele>
        <time>2013-01-02T12:57:46.000Z</time>
      </trkpt>
      <trkpt lat="48.70488" lon="1.7598">
        <ele>179.19999694824</ele>
        <time>2013-01-02T12:57:54.000Z</time>
      </trkpt>
      <trkpt lat="48.70496" lon="1.75966">
        <ele>179.60000610352</ele>
        <time>2013-01-02T12:58:04.000Z</time>
      </trkpt>
      <trkpt lat="48.70505" lon="1.75954">
        <ele>179.80000305176</ele>
        <time>2013-01-02T12:58:13.000Z</time>
      </trkpt>
      <trkpt lat="48.70511" lon="1.75946">
        <ele>179.80000305176</ele>
        <time>2013-01-02T12:58:20.000Z</time>
      </trkpt>
      <trkpt lat="48.70512" lon="1.75945">
        <ele>179.80000305176</ele>
        <time>2013-01-02T12:58:21.000Z</time>
      </trkpt>
      <trkpt lat="48.70516" lon="1.75939">
        <ele>179.80000305176</ele>
        <time>2013-01-02T12:58:26.000Z</time>
      </trkpt>
      <trkpt lat="48.70522" lon="1.7593">
        <ele>179.80000305176</ele>
        <time>2013-01-02T12:58:32.000Z</time>
      </trkpt>
      <trkpt lat="48.70526" lon="1.75921">
        <ele>179.80000305176</ele>
        <time>2013-01-02T12:58:39.000Z</time>
      </trkpt>
      <trkpt lat="48.70529" lon="1.75914">
        <ele>179.80000305176</ele>
        <time>2013-01-02T12:58:43.000Z</time>
      </trkpt>
      <trkpt lat="48.70532" lon="1.75909">
        <ele>179.80000305176</ele>
        <time>2013-01-02T12:58:47.000Z</time>
      </trkpt>
      <trkpt lat="48.70535" lon="1.75903">
        <ele>179.60000610352</ele>
        <time>2013-01-02T12:58:51.000Z</time>
      </trkpt>
      <trkpt lat="48.70537" lon="1.75899">
        <ele>179.39999389648</ele>
        <time>2013-01-02T12:58:53.000Z</time>
      </trkpt>
      <trkpt lat="48.7054" lon="1.75893">
        <ele>179.39999389648</ele>
        <time>2013-01-02T12:58:57.000Z</time>
      </trkpt>
      <trkpt lat="48.70546" lon="1.75881">
        <ele>179</ele>
        <time>2013-01-02T12:59:04.000Z</time>
      </trkpt>
      <trkpt lat="48.70552" lon="1.75871">
        <ele>178.60000610352</ele>
        <time>2013-01-02T12:59:11.000Z</time>
      </trkpt>
      <trkpt lat="48.70558" lon="1.75858">
        <ele>178.19999694824</ele>
        <time>2013-01-02T12:59:19.000Z</time>
      </trkpt>
      <trkpt lat="48.70559" lon="1.75855">
        <ele>178</ele>
        <time>2013-01-02T12:59:21.000Z</time>
      </trkpt>
      <trkpt lat="48.70564" lon="1.75842">
        <ele>177.80000305176</ele>
        <time>2013-01-02T12:59:28.000Z</time>
      </trkpt>
      <trkpt lat="48.70564" lon="1.75841">
        <ele>177.80000305176</ele>
        <time>2013-01-02T12:59:29.000Z</time>
      </trkpt>
      <trkpt lat="48.70567" lon="1.75831">
        <ele>177.60000610352</ele>
        <time>2013-01-02T12:59:35.000Z</time>
      </trkpt>
      <trkpt lat="48.70571" lon="1.75822">
        <ele>177.39999389648</ele>
        <time>2013-01-02T12:59:41.000Z</time>
      </trkpt>
      <trkpt lat="48.70578" lon="1.75808">
        <ele>177.39999389648</ele>
        <time>2013-01-02T12:59:49.000Z</time>
      </trkpt>
      <trkpt lat="48.70581" lon="1.758">
        <ele>177.19999694824</ele>
        <time>2013-01-02T12:59:54.000Z</time>
      </trkpt>
      <trkpt lat="48.70592" lon="1.75789">
        <ele>177</ele>
        <time>2013-01-02T13:00:04.000Z</time>
      </trkpt>
      <trkpt lat="48.70599" lon="1.75776">
        <ele>177</ele>
        <time>2013-01-02T13:00:12.000Z</time>
      </trkpt>
      <trkpt lat="48.70605" lon="1.75766">
        <ele>177</ele>
        <time>2013-01-02T13:00:19.000Z</time>
      </trkpt>
      <trkpt lat="48.7061" lon="1.75756">
        <ele>177</ele>
        <time>2013-01-02T13:00:25.000Z</time>
      </trkpt>
      <trkpt lat="48.70616" lon="1.75748">
        <ele>177</ele>
        <time>2013-01-02T13:00:32.000Z</time>
      </trkpt>
      <trkpt lat="48.70621" lon="1.75741">
        <ele>177</ele>
        <time>2013-01-02T13:00:37.000Z</time>
      </trkpt>
      <trkpt lat="48.70623" lon="1.75738">
        <ele>177</ele>
        <time>2013-01-02T13:00:42.000Z</time>
      </trkpt>
      <trkpt lat="48.7063" lon="1.75714">
        <ele>177.39999389648</ele>
        <time>2013-01-02T13:02:05.000Z</time>
      </trkpt>
      <trkpt lat="48.70635" lon="1.75705">
        <ele>177.39999389648</ele>
        <time>2013-01-02T13:02:11.000Z</time>
      </trkpt>
      <trkpt lat="48.70639" lon="1.757">
        <ele>177.19999694824</ele>
        <time>2013-01-02T13:02:15.000Z</time>
      </trkpt>
      <trkpt lat="48.7064" lon="1.75697">
        <ele>177.19999694824</ele>
        <time>2013-01-02T13:02:17.000Z</time>
      </trkpt>
      <trkpt lat="48.70641" lon="1.75686">
        <ele>177.39999389648</ele>
        <time>2013-01-02T13:02:22.000Z</time>
      </trkpt>
      <trkpt lat="48.7064" lon="1.75676">
        <ele>177.80000305176</ele>
        <time>2013-01-02T13:02:27.000Z</time>
      </trkpt>
      <trkpt lat="48.7064" lon="1.75674">
        <ele>177.80000305176</ele>
        <time>2013-01-02T13:02:28.000Z</time>
      </trkpt>
      <trkpt lat="48.7064" lon="1.75664">
        <ele>178</ele>
        <time>2013-01-02T13:02:33.000Z</time>
      </trkpt>
      <trkpt lat="48.70641" lon="1.75658">
        <ele>178</ele>
        <time>2013-01-02T13:02:38.000Z</time>
      </trkpt>
      <trkpt lat="48.70641" lon="1.75657">
        <ele>178</ele>
        <time>2013-01-02T13:02:39.000Z</time>
      </trkpt>
      <trkpt lat="48.7064" lon="1.75649">
        <ele>178</ele>
        <time>2013-01-02T13:02:45.000Z</time>
      </trkpt>
      <trkpt lat="48.70639" lon="1.75634">
        <ele>178</ele>
        <time>2013-01-02T13:02:51.000Z</time>
      </trkpt>
      <trkpt lat="48.70642" lon="1.75621">
        <ele>177.60000610352</ele>
        <time>2013-01-02T13:02:57.000Z</time>
      </trkpt>
      <trkpt lat="48.70644" lon="1.75614">
        <ele>177.19999694824</ele>
        <time>2013-01-02T13:03:01.000Z</time>
      </trkpt>
      <trkpt lat="48.70649" lon="1.75604">
        <ele>176.80000305176</ele>
        <time>2013-01-02T13:03:07.000Z</time>
      </trkpt>
      <trkpt lat="48.7065" lon="1.75597">
        <ele>176.60000610352</ele>
        <time>2013-01-02T13:03:13.000Z</time>
      </trkpt>
      <trkpt lat="48.70652" lon="1.75592">
        <ele>176.39999389648</ele>
        <time>2013-01-02T13:03:19.000Z</time>
      </trkpt>
      <trkpt lat="48.70662" lon="1.75574">
        <ele>175.19999694824</ele>
        <time>2013-01-02T13:03:30.000Z</time>
      </trkpt>
      <trkpt lat="48.70669" lon="1.75562">
        <ele>174.39999389648</ele>
        <time>2013-01-02T13:03:39.000Z</time>
      </trkpt>
      <trkpt lat="48.70673" lon="1.75551">
        <ele>174</ele>
        <time>2013-01-02T13:03:46.000Z</time>
      </trkpt>
      <trkpt lat="48.70673" lon="1.75549">
        <ele>173.80000305176</ele>
        <time>2013-01-02T13:03:47.000Z</time>
      </trkpt>
      <trkpt lat="48.70679" lon="1.75537">
        <ele>173.39999389648</ele>
        <time>2013-01-02T13:03:55.000Z</time>
      </trkpt>
      <trkpt lat="48.70685" lon="1.75521">
        <ele>173</ele>
        <time>2013-01-02T13:04:05.000Z</time>
      </trkpt>
      <trkpt lat="48.70691" lon="1.75507">
        <ele>172.39999389648</ele>
        <time>2013-01-02T13:04:14.000Z</time>
      </trkpt>
      <trkpt lat="48.70698" lon="1.7549">
        <ele>172</ele>
        <time>2013-01-02T13:04:24.000Z</time>
      </trkpt>
      <trkpt lat="48.70698" lon="1.75486">
        <ele>172</ele>
        <time>2013-01-02T13:04:27.000Z</time>
      </trkpt>
      <trkpt lat="48.70695" lon="1.75482">
        <ele>172</ele>
        <time>2013-01-02T13:04:33.000Z</time>
      </trkpt>
      <trkpt lat="48.707" lon="1.75482">
        <ele>172</ele>
        <time>2013-01-02T13:04:57.000Z</time>
      </trkpt>
      <trkpt lat="48.70702" lon="1.75484">
        <ele>172</ele>
        <time>2013-01-02T13:04:59.000Z</time>
      </trkpt>
      <trkpt lat="48.707" lon="1.75485">
        <ele>172</ele>
        <time>2013-01-02T13:05:04.000Z</time>
      </trkpt>
      <trkpt lat="48.707" lon="1.75485">
        <ele>172</ele>
        <time>2013-01-02T13:05:06.000Z</time>
      </trkpt>
    </trkseg>
  </trk>
</gpx>